Observation data for Palo Duro Canyon State Park Rim on 08/14/2020      Previous  Date  Next       Current Mesonet Observations  Soil Data  Daily Summary Page  Observations in Plain Language
KPD1 140500Z 35005KT 29/17 A3002 RMK A01 T02850171  RH  050%=      5-min Rain = 0
KPD1 140501Z 34004KT 29/17 A3002 RMK A01 T02850171  RH  050%=      5-min Rain = 0
KPD1 140502Z 34004KT 29/17 A3002 RMK A01 T02850171  RH  050%=      5-min Rain = 0
KPD1 140503Z 35003KT 28/17 A3002 RMK A01 T02840170  RH  050%=      5-min Rain = 0
KPD1 140504Z 33002KT 28/17 A3002 RMK A01 T02840170  RH  050%=      5-min Rain = 0
KPD1 140505Z 33003KT 28/17 A3002 RMK A01 T02840171  RH  050%=      5-min Rain = 0
KPD1 140506Z 33004KT 28/17 A3002 RMK A01 T02830170  RH  050%=      5-min Rain = 0
KPD1 140507Z 33003KT 28/17 A3002 RMK A01 T02830171  RH  050%=      5-min Rain = 0
KPD1 140508Z 35003KT 28/17 A3002 RMK A01 T02830170  RH  050%=      5-min Rain = 0
KPD1 140509Z 35002KT 28/17 A3002 RMK A01 T02830170  RH  050%=      5-min Rain = 0
KPD1 140510Z 34004KT 28/17 A3002 RMK A01 T02830170  RH  051%=      5-min Rain = 0
KPD1 140511Z 34004KT 28/17 A3002 RMK A01 T02820170  RH  051%=      5-min Rain = 0
KPD1 140512Z 34004KT 28/17 A3002 RMK A01 T02820170  RH  051%=      5-min Rain = 0
KPD1 140513Z 00003KT 28/17 A3002 RMK A01 T02810170  RH  051%=      5-min Rain = 0
KPD1 140514Z 00004KT 28/17 A3003 RMK A01 T02810170  RH  051%=      5-min Rain = 0
KPD1 140515Z 36005KT 28/17 A3003 RMK A01 T02800169  RH  051%=      5-min Rain = 0
KPD1 140516Z 35005KT 28/17 A3003 RMK A01 T02800169  RH  051%=      5-min Rain = 0
KPD1 140517Z 34005KT 28/17 A3003 RMK A01 T02800170  RH  051%=      5-min Rain = 0
KPD1 140518Z 34005KT 28/17 A3003 RMK A01 T02800170  RH  051%=      5-min Rain = 0
KPD1 140519Z 31006KT 28/17 A3002 RMK A01 T02800169  RH  051%=      5-min Rain = 0
KPD1 140520Z 31009KT 28/17 A3002 RMK A01 T02800168  RH  051%=      5-min Rain = 0
KPD1 140521Z 32007KT 28/17 A3002 RMK A01 T02800168  RH  050%=      5-min Rain = 0
KPD1 140522Z 32008G13KT 28/17 A3002 RMK A01 T02810167  RH  050%=      5-min Rain = 0
KPD1 140523Z 31007KT 28/17 A3002 RMK A01 T02810167  RH  050%=      5-min Rain = 0
KPD1 140524Z 33009KT 28/17 A3002 RMK A01 T02810168  RH  050%=      5-min Rain = 0
KPD1 140525Z 32006KT 28/17 A3002 RMK A01 T02800167  RH  050%=      5-min Rain = 0
KPD1 140526Z 33006KT 28/17 A3003 RMK A01 T02800167  RH  050%=      5-min Rain = 0
KPD1 140527Z 32006KT 28/17 A3003 RMK A01 T02800167  RH  050%=      5-min Rain = 0
KPD1 140528Z 32007KT 28/17 A3003 RMK A01 T02800167  RH  050%=      5-min Rain = 0
KPD1 140529Z 32006KT 28/17 A3003 RMK A01 T02800168  RH  051%=      5-min Rain = 0
KPD1 140530Z 32007KT 28/17 A3003 RMK A01 T02790167  RH  051%=      5-min Rain = 0
KPD1 140531Z 33005KT 28/17 A3003 RMK A01 T02790168  RH  051%=      5-min Rain = 0
KPD1 140532Z 34008KT 28/17 A3003 RMK A01 T02790168  RH  051%=      5-min Rain = 0
KPD1 140533Z 34008KT 28/17 A3003 RMK A01 T02780167  RH  051%=      5-min Rain = 0
KPD1 140534Z 33005KT 28/17 A3002 RMK A01 T02780168  RH  051%=      5-min Rain = 0
KPD1 140535Z 32005KT 28/17 A3002 RMK A01 T02780169  RH  051%=      5-min Rain = 0
KPD1 140536Z 34005KT 28/17 A3002 RMK A01 T02780169  RH  051%=      5-min Rain = 0
KPD1 140537Z 31006KT 28/17 A3002 RMK A01 T02790168  RH  051%=      5-min Rain = 0
KPD1 140538Z 32006KT 28/17 A3002 RMK A01 T02780168  RH  051%=      5-min Rain = 0
KPD1 140539Z 35007KT 28/17 A3002 RMK A01 T02780168  RH  051%=      5-min Rain = 0
KPD1 140540Z 35005KT 28/17 A3002 RMK A01 T02770167  RH  051%=      5-min Rain = 0
KPD1 140541Z 34005KT 28/17 A3003 RMK A01 T02770167  RH  051%=      5-min Rain = 0
KPD1 140542Z 34004KT 28/17 A3003 RMK A01 T02760167  RH  051%=      5-min Rain = 0
KPD1 140543Z 32006KT 28/17 A3003 RMK A01 T02760167  RH  052%=      5-min Rain = 0
KPD1 140544Z 33006KT 28/17 A3002 RMK A01 T02760168  RH  052%=      5-min Rain = 0
KPD1 140545Z 35006KT 28/17 A3003 RMK A01 T02760168  RH  052%=      5-min Rain = 0
KPD1 140546Z 34005KT 28/17 A3003 RMK A01 T02750168  RH  052%=      5-min Rain = 0
KPD1 140547Z 34005KT 28/17 A3003 RMK A01 T02750167  RH  052%=      5-min Rain = 0
KPD1 140548Z 35006KT 28/17 A3003 RMK A01 T02750168  RH  052%=      5-min Rain = 0
KPD1 140549Z 34007KT 27/17 A3003 RMK A01 T02740168  RH  052%=      5-min Rain = 0
KPD1 140550Z 34007KT 27/17 A3003 RMK A01 T02740168  RH  052%=      5-min Rain = 0
KPD1 140551Z 31007KT 27/17 A3003 RMK A01 T02730168  RH  053%=      5-min Rain = 0
KPD1 140552Z 35007KT 27/17 A3003 RMK A01 T02740169  RH  053%=      5-min Rain = 0
KPD1 140553Z 02003KT 27/17 A3003 RMK A01 T02740169  RH  053%=      5-min Rain = 0
KPD1 140554Z 33004KT 27/17 A3003 RMK A01 T02730169  RH  053%=      5-min Rain = 0
KPD1 140555Z 31005KT 27/17 A3003 RMK A01 T02730169  RH  053%=      5-min Rain = 0
KPD1 140556Z 33004KT 27/17 A3003 RMK A01 T02730170  RH  053%=      5-min Rain = 0
KPD1 140557Z 32005KT 27/17 A3003 RMK A01 T02720170  RH  054%=      5-min Rain = 0
KPD1 140558Z 34006KT 27/17 A3003 RMK A01 T02720170  RH  054%=      5-min Rain = 0
KPD1 140559Z 33006KT 27/17 A3003 RMK A01 T02710170  RH  054%=      5-min Rain = 0
KPD1 140600Z 32005KT 27/17 A3003 RMK A01 T02710171  RH  054%=      5-min Rain = 0
KPD1 140601Z 33004KT 27/17 A3003 RMK A01 T02710171  RH  054%=      5-min Rain = 0
KPD1 140602Z 33003KT 27/17 A3003 RMK A01 T02700171  RH  054%=      5-min Rain = 0
KPD1 140603Z 35004KT 27/17 A3003 RMK A01 T02700171  RH  055%=      5-min Rain = 0
KPD1 140604Z 35004KT 27/17 A3003 RMK A01 T02690171  RH  055%=      5-min Rain = 0
KPD1 140605Z 34005KT 27/17 A3003 RMK A01 T02690172  RH  055%=      5-min Rain = 0
KPD1 140606Z 36004KT 27/17 A3003 RMK A01 T02680173  RH  056%=      5-min Rain = 0
KPD1 140607Z 35003KT 27/17 A3003 RMK A01 T02680173  RH  056%=      5-min Rain = 0
KPD1 140608Z 35004KT 27/17 A3003 RMK A01 T02670173  RH  056%=      5-min Rain = 0
KPD1 140609Z 33003KT 27/17 A3003 RMK A01 T02670173  RH  056%=      5-min Rain = 0
KPD1 140610Z 32005KT 27/17 A3003 RMK A01 T02670174  RH  057%=      5-min Rain = 0
KPD1 140611Z 35007KT 27/17 A3003 RMK A01 T02660174  RH  057%=      5-min Rain = 0
KPD1 140612Z 34005KT 27/18 A3003 RMK A01 T02660175  RH  057%=      5-min Rain = 0
KPD1 140613Z 35006KT 27/18 A3003 RMK A01 T02660175  RH  058%=      5-min Rain = 0
KPD1 140614Z 34005KT 27/18 A3003 RMK A01 T02660176  RH  058%=      5-min Rain = 0
KPD1 140615Z 35004KT 27/18 A3003 RMK A01 T02660176  RH  058%=      5-min Rain = 0
KPD1 140616Z 00004KT 27/18 A3003 RMK A01 T02660176  RH  058%=      5-min Rain = 0
KPD1 140617Z 05003KT 27/18 A3003 RMK A01 T02660176  RH  058%=      5-min Rain = 0
KPD1 140618Z 00002KT 27/18 A3003 RMK A01 T02650177  RH  058%=      5-min Rain = 0
KPD1 140619Z 01003KT 27/18 A3003 RMK A01 T02650177  RH  059%=      5-min Rain = 0
KPD1 140620Z 03004KT 27/18 A3003 RMK A01 T02650178  RH  059%=      5-min Rain = 0
KPD1 140621Z 03005KT 26/18 A3003 RMK A01 T02640177  RH  059%=      5-min Rain = 0
KPD1 140622Z 03004KT 26/18 A3003 RMK A01 T02640178  RH  059%=      5-min Rain = 0
KPD1 140623Z 04004KT 26/18 A3003 RMK A01 T02640178  RH  059%=      5-min Rain = 0
KPD1 140624Z 04005KT 27/18 A3003 RMK A01 T02650179  RH  059%=      5-min Rain = 0
KPD1 140625Z 05005KT 27/18 A3003 RMK A01 T02650179  RH  059%=      5-min Rain = 0
KPD1 140626Z 03006KT 27/18 A3003 RMK A01 T02650180  RH  060%=      5-min Rain = 0
KPD1 140627Z 03006KT 27/18 A3003 RMK A01 T02650181  RH  060%=      5-min Rain = 0
KPD1 140628Z 03005KT 27/18 A3003 RMK A01 T02650181  RH  060%=      5-min Rain = 0
KPD1 140629Z 02005KT 27/18 A3003 RMK A01 T02660181  RH  059%=      5-min Rain = 0
KPD1 140630Z 04004KT 27/18 A3003 RMK A01 T02660181  RH  059%=      5-min Rain = 0
KPD1 140631Z 05003KT 27/18 A3003 RMK A01 T02660181  RH  059%=      5-min Rain = 0
KPD1 140632Z 03005KT 27/18 A3003 RMK A01 T02660181  RH  060%=      5-min Rain = 0
KPD1 140633Z 04007KT 27/18 A3003 RMK A01 T02650181  RH  060%=      5-min Rain = 0
KPD1 140634Z 04006KT 27/18 A3003 RMK A01 T02660182  RH  060%=      5-min Rain = 0
KPD1 140635Z 04005KT 27/18 A3003 RMK A01 T02670182  RH  060%=      5-min Rain = 0
KPD1 140636Z 02004KT 27/18 A3003 RMK A01 T02680182  RH  059%=      5-min Rain = 0
KPD1 140637Z 04005KT 27/18 A3003 RMK A01 T02670182  RH  059%=      5-min Rain = 0
KPD1 140638Z 03004KT 27/18 A3003 RMK A01 T02660182  RH  060%=      5-min Rain = 0
KPD1 140639Z 03005KT 27/18 A3003 RMK A01 T02650181  RH  060%=      5-min Rain = 0
KPD1 140640Z 04004KT 26/18 A3003 RMK A01 T02640181  RH  060%=      5-min Rain = 0
KPD1 140641Z 04006KT 26/18 A3003 RMK A01 T02620181  RH  061%=      5-min Rain = 0
KPD1 140642Z 02004KT 26/18 A3003 RMK A01 T02620182  RH  061%=      5-min Rain = 0
KPD1 140643Z 01005KT 26/18 A3003 RMK A01 T02620182  RH  061%=      5-min Rain = 0
KPD1 140644Z 02005KT 26/18 A3003 RMK A01 T02610182  RH  062%=      5-min Rain = 0
KPD1 140645Z 05002KT 26/18 A3003 RMK A01 T02610182  RH  062%=      5-min Rain = 0
KPD1 140646Z 05004KT 26/18 A3003 RMK A01 T02600182  RH  062%=      5-min Rain = 0
KPD1 140647Z 08003KT 26/18 A3003 RMK A01 T02590181  RH  062%=      5-min Rain = 0
KPD1 140648Z 09003KT 26/18 A3003 RMK A01 T02580181  RH  062%=      5-min Rain = 0
KPD1 140649Z 10005KT 26/18 A3003 RMK A01 T02580182  RH  063%=      5-min Rain = 0
KPD1 140650Z 10006KT 26/18 A3003 RMK A01 T02570182  RH  063%=      5-min Rain = 0
KPD1 140651Z 08005KT 26/18 A3003 RMK A01 T02560182  RH  064%=      5-min Rain = 0
KPD1 140652Z 09003KT 26/18 A3003 RMK A01 T02560183  RH  064%=      5-min Rain = 0
KPD1 140653Z 10003KT 26/18 A3003 RMK A01 T02560182  RH  064%=      5-min Rain = 0
KPD1 140654Z 10003KT 26/18 A3003 RMK A01 T02560183  RH  064%=      5-min Rain = 0
KPD1 140655Z 11003KT 26/18 A3003 RMK A01 T02550183  RH  064%=      5-min Rain = 0
KPD1 140656Z 14003KT 26/18 A3003 RMK A01 T02550183  RH  064%=      5-min Rain = 0
KPD1 140657Z 15003KT 25/18 A3003 RMK A01 T02540183  RH  065%=      5-min Rain = 0
KPD1 140658Z 16003KT 25/18 A3003 RMK A01 T02530182  RH  065%=      5-min Rain = 0
KPD1 140659Z 15002KT 25/18 A3003 RMK A01 T02520182  RH  065%=      5-min Rain = 0
KPD1 140700Z 17003KT 25/18 A3003 RMK A01 T02510182  RH  065%=      5-min Rain = 0
KPD1 140701Z 16003KT 25/18 A3003 RMK A01 T02510181  RH  065%=      5-min Rain = 0
KPD1 140702Z 16004KT 25/18 A3003 RMK A01 T02500180  RH  065%=      5-min Rain = 0
KPD1 140703Z 16004KT 25/18 A3003 RMK A01 T02490178  RH  065%=      5-min Rain = 0
KPD1 140704Z 14004KT 25/18 A3003 RMK A01 T02490178  RH  065%=      5-min Rain = 0
KPD1 140705Z 14004KT 25/18 A3003 RMK A01 T02480178  RH  065%=      5-min Rain = 0
KPD1 140706Z 14004KT 25/18 A3003 RMK A01 T02480178  RH  065%=      5-min Rain = 0
KPD1 140707Z 14004KT 25/18 A3003 RMK A01 T02480178  RH  065%=      5-min Rain = 0
KPD1 140708Z 14004KT 25/18 A3003 RMK A01 T02480177  RH  065%=      5-min Rain = 0
KPD1 140709Z 15003KT 25/18 A3003 RMK A01 T02480177  RH  065%=      5-min Rain = 0
KPD1 140710Z 14003KT 25/18 A3003 RMK A01 T02480177  RH  065%=      5-min Rain = 0
KPD1 140711Z 14003KT 25/18 A3003 RMK A01 T02480177  RH  065%=      5-min Rain = 0
KPD1 140712Z 12003KT 25/18 A3003 RMK A01 T02480177  RH  065%=      5-min Rain = 0
KPD1 140713Z 12004KT 25/18 A3003 RMK A01 T02470177  RH  065%=      5-min Rain = 0
KPD1 140714Z 13004KT 25/18 A3003 RMK A01 T02470177  RH  065%=      5-min Rain = 0
KPD1 140715Z 14004KT 25/18 A3003 RMK A01 T02460176  RH  065%=      5-min Rain = 0
KPD1 140716Z 12004KT 25/18 A3003 RMK A01 T02450176  RH  065%=      5-min Rain = 0
KPD1 140717Z 12004KT 25/18 A3003 RMK A01 T02450176  RH  065%=      5-min Rain = 0
KPD1 140718Z 12003KT 24/18 A3003 RMK A01 T02440176  RH  065%=      5-min Rain = 0
KPD1 140719Z 11005KT 24/18 A3003 RMK A01 T02440177  RH  066%=      5-min Rain = 0
KPD1 140720Z 10004KT 24/18 A3003 RMK A01 T02440178  RH  067%=      5-min Rain = 0
KPD1 140721Z 10004KT 24/18 A3003 RMK A01 T02440179  RH  067%=      5-min Rain = 0
KPD1 140722Z 09004KT 24/18 A3003 RMK A01 T02440181  RH  068%=      5-min Rain = 0
KPD1 140723Z 08004KT 24/18 A3003 RMK A01 T02440181  RH  068%=      5-min Rain = 0
KPD1 140724Z 09004KT 24/18 A3003 RMK A01 T02440180  RH  067%=      5-min Rain = 0
KPD1 140725Z 08003KT 25/18 A3003 RMK A01 T02450181  RH  068%=      5-min Rain = 0
KPD1 140726Z 07004KT 25/18 A3003 RMK A01 T02450181  RH  068%=      5-min Rain = 0
KPD1 140727Z 09005KT 25/18 A3003 RMK A01 T02450183  RH  068%=      5-min Rain = 0
KPD1 140728Z 08006KT 25/19 A3003 RMK A01 T02460185  RH  069%=      5-min Rain = 0
KPD1 140729Z 08007KT 25/19 A3003 RMK A01 T02470186  RH  069%=      5-min Rain = 0
KPD1 140730Z 09006KT 25/19 A3003 RMK A01 T02480188  RH  069%=      5-min Rain = 0
KPD1 140731Z 07005KT 25/19 A3003 RMK A01 T02490188  RH  069%=      5-min Rain = 0
KPD1 140732Z 08004KT 25/19 A3003 RMK A01 T02500187  RH  068%=      5-min Rain = 0
KPD1 140733Z 07003KT 25/19 A3003 RMK A01 T02500187  RH  068%=      5-min Rain = 0
KPD1 140734Z 06003KT 25/19 A3003 RMK A01 T02510186  RH  067%=      5-min Rain = 0
KPD1 140735Z 06003KT 25/19 A3003 RMK A01 T02500186  RH  067%=      5-min Rain = 0
KPD1 140736Z 06004KT 25/19 A3003 RMK A01 T02500186  RH  068%=      5-min Rain = 0
KPD1 140737Z 06004KT 25/19 A3003 RMK A01 T02490185  RH  068%=      5-min Rain = 0
KPD1 140738Z 07004KT 25/19 A3003 RMK A01 T02490186  RH  068%=      5-min Rain = 0
KPD1 140739Z 07005KT 25/19 A3003 RMK A01 T02480186  RH  068%=      5-min Rain = 0
KPD1 140740Z 07004KT 25/19 A3003 RMK A01 T02480187  RH  069%=      5-min Rain = 0
KPD1 140741Z 06004KT 25/19 A3003 RMK A01 T02480187  RH  069%=      5-min Rain = 0
KPD1 140742Z 05004KT 25/19 A3003 RMK A01 T02480186  RH  069%=      5-min Rain = 0
KPD1 140743Z 05004KT 25/19 A3003 RMK A01 T02480186  RH  068%=      5-min Rain = 0
KPD1 140744Z 05004KT 25/19 A3003 RMK A01 T02480186  RH  068%=      5-min Rain = 0
KPD1 140745Z 05003KT 25/19 A3003 RMK A01 T02470185  RH  068%=      5-min Rain = 0
KPD1 140746Z 04003KT 25/19 A3003 RMK A01 T02460185  RH  069%=      5-min Rain = 0
KPD1 140747Z 04003KT 25/18 A3003 RMK A01 T02450184  RH  069%=      5-min Rain = 0
KPD1 140748Z 03004KT 24/18 A3003 RMK A01 T02440183  RH  069%=      5-min Rain = 0
KPD1 140749Z 03004KT 24/18 A3003 RMK A01 T02430182  RH  069%=      5-min Rain = 0
KPD1 140750Z 02004KT 24/18 A3003 RMK A01 T02420181  RH  069%=      5-min Rain = 0
KPD1 140751Z 02004KT 24/18 A3003 RMK A01 T02410180  RH  069%=      5-min Rain = 0
KPD1 140752Z 02004KT 24/18 A3003 RMK A01 T02400180  RH  069%=      5-min Rain = 0
KPD1 140753Z 01003KT 24/18 A3003 RMK A01 T02390180  RH  069%=      5-min Rain = 0
KPD1 140754Z 00003KT 24/18 A3003 RMK A01 T02380179  RH  069%=      5-min Rain = 0
KPD1 140755Z 36002KT 24/18 A3003 RMK A01 T02380179  RH  070%=      5-min Rain = 0
KPD1 140756Z 35002KT 24/18 A3002 RMK A01 T02370179  RH  070%=      5-min Rain = 0
KPD1 140757Z 35002KT 24/18 A3002 RMK A01 T02360179  RH  070%=      5-min Rain = 0
KPD1 140758Z 35002KT 24/18 A3002 RMK A01 T02360180  RH  071%=      5-min Rain = 0
KPD1 140759Z 35002KT 24/18 A3002 RMK A01 T02350180  RH  071%=      5-min Rain = 0
KPD1 140800Z 34002KT 24/18 A3002 RMK A01 T02350180  RH  071%=      5-min Rain = 0
KPD1 140801Z 34002KT 23/18 A3002 RMK A01 T02340180  RH  072%=      5-min Rain = 0
KPD1 140802Z 01001KT 23/18 A3002 RMK A01 T02340181  RH  072%=      5-min Rain = 0
KPD1 140803Z 03001KT 23/18 A3002 RMK A01 T02340181  RH  072%=      5-min Rain = 0
KPD1 140804Z 02002KT 23/18 A3002 RMK A01 T02340180  RH  072%=      5-min Rain = 0
KPD1 140805Z 03002KT 23/18 A3002 RMK A01 T02330181  RH  072%=      5-min Rain = 0
KPD1 140806Z 03002KT 23/18 A3002 RMK A01 T02330180  RH  072%=      5-min Rain = 0
KPD1 140807Z 03003KT 23/18 A3002 RMK A01 T02320181  RH  073%=      5-min Rain = 0
KPD1 140808Z 03003KT 23/18 A3002 RMK A01 T02320180  RH  073%=      5-min Rain = 0
KPD1 140809Z 03003KT 23/18 A3002 RMK A01 T02310181  RH  073%=      5-min Rain = 0
KPD1 140810Z 02003KT 23/18 A3002 RMK A01 T02310181  RH  073%=      5-min Rain = 0
KPD1 140811Z 02003KT 23/18 A3002 RMK A01 T02310181  RH  074%=      5-min Rain = 0
KPD1 140812Z 03003KT 23/18 A3002 RMK A01 T02310182  RH  074%=      5-min Rain = 0
KPD1 140813Z 03004KT 23/18 A3002 RMK A01 T02320182  RH  073%=      5-min Rain = 0
KPD1 140814Z 04003KT 23/18 A3002 RMK A01 T02330181  RH  073%=      5-min Rain = 0
KPD1 140815Z 04003KT 23/18 A3002 RMK A01 T02330180  RH  072%=      5-min Rain = 0
KPD1 140816Z 04003KT 23/18 A3002 RMK A01 T02330180  RH  072%=      5-min Rain = 0
KPD1 140817Z 04002KT 23/18 A3002 RMK A01 T02330180  RH  072%=      5-min Rain = 0
KPD1 140818Z 04002KT 23/18 A3002 RMK A01 T02330180  RH  072%=      5-min Rain = 0
KPD1 140819Z 05002KT 23/18 A3002 RMK A01 T02330181  RH  073%=      5-min Rain = 0
KPD1 140820Z 05002KT 23/18 A3002 RMK A01 T02330181  RH  073%=      5-min Rain = 0
KPD1 140821Z 04002KT 23/18 A3002 RMK A01 T02320181  RH  073%=      5-min Rain = 0
KPD1 140822Z 04002KT 23/18 A3002 RMK A01 T02310180  RH  073%=      5-min Rain = 0
KPD1 140823Z 04003KT 23/18 A3002 RMK A01 T02300181  RH  074%=      5-min Rain = 0
KPD1 140824Z 03003KT 23/18 A3002 RMK A01 T02300180  RH  074%=      5-min Rain = 0
KPD1 140825Z 02003KT 23/18 A3002 RMK A01 T02280179  RH  074%=      5-min Rain = 0
KPD1 140826Z 02003KT 23/18 A3002 RMK A01 T02280180  RH  074%=      5-min Rain = 0
KPD1 140827Z 02003KT 23/18 A3002 RMK A01 T02270180  RH  074%=      5-min Rain = 0
KPD1 140828Z 02002KT 23/18 A3002 RMK A01 T02270180  RH  075%=      5-min Rain = 0
KPD1 140829Z 02002KT 23/18 A3002 RMK A01 T02270180  RH  075%=      5-min Rain = 0
KPD1 140830Z 02002KT 23/18 A3002 RMK A01 T02270180  RH  075%=      5-min Rain = 0
KPD1 140831Z 02002KT 23/18 A3002 RMK A01 T02270181  RH  075%=      5-min Rain = 0
KPD1 140832Z 02002KT 23/18 A3002 RMK A01 T02260180  RH  075%=      5-min Rain = 0
KPD1 140833Z 02002KT 23/18 A3002 RMK A01 T02260180  RH  075%=      5-min Rain = 0
KPD1 140834Z 03002KT 23/18 A3002 RMK A01 T02260180  RH  076%=      5-min Rain = 0
KPD1 140835Z 03002KT 23/18 A3002 RMK A01 T02250180  RH  076%=      5-min Rain = 0
KPD1 140836Z 03002KT 23/18 A3002 RMK A01 T02250180  RH  076%=      5-min Rain = 0
KPD1 140837Z 04003KT 22/18 A3002 RMK A01 T02240181  RH  076%=      5-min Rain = 0
KPD1 140838Z 04003KT 23/18 A3001 RMK A01 T02250182  RH  077%=      5-min Rain = 0
KPD1 140839Z 04004KT 23/18 A3001 RMK A01 T02260184  RH  077%=      5-min Rain = 0
KPD1 140840Z 04003KT 23/19 A3001 RMK A01 T02270185  RH  077%=      5-min Rain = 0
KPD1 140841Z 03003KT 23/19 A3001 RMK A01 T02280186  RH  077%=      5-min Rain = 0
KPD1 140842Z 03002KT 23/19 A3001 RMK A01 T02290187  RH  077%=      5-min Rain = 0
KPD1 140843Z 03002KT 23/19 A3002 RMK A01 T02300188  RH  077%=      5-min Rain = 0
KPD1 140844Z 04002KT 23/19 A3002 RMK A01 T02300188  RH  077%=      5-min Rain = 0
KPD1 140845Z 03002KT 23/19 A3002 RMK A01 T02310188  RH  077%=      5-min Rain = 0
KPD1 140846Z 04003KT 23/19 A3002 RMK A01 T02310188  RH  077%=      5-min Rain = 0
KPD1 140847Z 04003KT 23/19 A3002 RMK A01 T02310188  RH  076%=      5-min Rain = 0
KPD1 140848Z 04003KT 23/19 A3002 RMK A01 T02320188  RH  076%=      5-min Rain = 0
KPD1 140849Z 04002KT 23/19 A3002 RMK A01 T02320187  RH  076%=      5-min Rain = 0
KPD1 140850Z 04002KT 23/19 A3002 RMK A01 T02320187  RH  076%=      5-min Rain = 0
KPD1 140851Z 03002KT 23/19 A3002 RMK A01 T02310187  RH  076%=      5-min Rain = 0
KPD1 140852Z 03002KT 23/19 A3002 RMK A01 T02310187  RH  076%=      5-min Rain = 0
KPD1 140853Z 03003KT 23/19 A3002 RMK A01 T02300186  RH  076%=      5-min Rain = 0
KPD1 140854Z 03003KT 23/19 A3002 RMK A01 T02290186  RH  076%=      5-min Rain = 0
KPD1 140855Z 03004KT 23/19 A3001 RMK A01 T02280185  RH  077%=      5-min Rain = 0
KPD1 140856Z 03004KT 23/19 A3001 RMK A01 T02280185  RH  077%=      5-min Rain = 0
KPD1 140857Z 03004KT 23/19 A3001 RMK A01 T02280185  RH  077%=      5-min Rain = 0
KPD1 140858Z 03004KT 23/19 A3001 RMK A01 T02270186  RH  077%=      5-min Rain = 0
KPD1 140859Z 03004KT 23/19 A3001 RMK A01 T02280187  RH  078%=      5-min Rain = 0
KPD1 140900Z 04004KT 23/19 A3001 RMK A01 T02290187  RH  077%=      5-min Rain = 0
KPD1 140901Z 04004KT 23/19 A3001 RMK A01 T02290187  RH  077%=      5-min Rain = 0
KPD1 140902Z 03003KT 23/19 A3001 RMK A01 T02300188  RH  077%=      5-min Rain = 0
KPD1 140903Z 03003KT 23/19 A3001 RMK A01 T02300187  RH  077%=      5-min Rain = 0
KPD1 140904Z 04003KT 23/19 A3001 RMK A01 T02300187  RH  077%=      5-min Rain = 0
KPD1 140905Z 04003KT 23/19 A3001 RMK A01 T02300187  RH  077%=      5-min Rain = 0
KPD1 140906Z 04004KT 23/19 A3001 RMK A01 T02300187  RH  077%=      5-min Rain = 0
KPD1 140907Z 06003KT 23/19 A3001 RMK A01 T02300187  RH  077%=      5-min Rain = 0
KPD1 140908Z 05003KT 23/19 A3001 RMK A01 T02290187  RH  077%=      5-min Rain = 0
KPD1 140909Z 05004KT 23/19 A3001 RMK A01 T02290188  RH  077%=      5-min Rain = 0
KPD1 140910Z 05004KT 23/19 A3001 RMK A01 T02290188  RH  078%=      5-min Rain = 0
KPD1 140911Z 04004KT 23/19 A3001 RMK A01 T02280188  RH  078%=      5-min Rain = 0
KPD1 140912Z 03004KT 23/19 A3001 RMK A01 T02280188  RH  078%=      5-min Rain = 0
KPD1 140913Z 03003KT 23/19 A3001 RMK A01 T02280188  RH  078%=      5-min Rain = 0
KPD1 140914Z 03003KT 23/19 A3001 RMK A01 T02280187  RH  078%=      5-min Rain = 0
KPD1 140915Z 01003KT 23/19 A3001 RMK A01 T02280187  RH  078%=      5-min Rain = 0
KPD1 140916Z 00003KT 23/19 A3001 RMK A01 T02270186  RH  078%=      5-min Rain = 0
KPD1 140917Z 35001KT 23/19 A3001 RMK A01 T02260186  RH  078%=      5-min Rain = 0
KPD1 140918Z 32001KT 23/19 A3001 RMK A01 T02250186  RH  078%=      5-min Rain = 0
KPD1 140919Z 32002KT 22/19 A3001 RMK A01 T02240185  RH  079%=      5-min Rain = 0
KPD1 140920Z 34002KT 22/18 A3001 RMK A01 T02230184  RH  079%=      5-min Rain = 0
KPD1 140921Z 34002KT 22/18 A3001 RMK A01 T02220183  RH  079%=      5-min Rain = 0
KPD1 140922Z 34002KT 22/18 A3001 RMK A01 T02210183  RH  079%=      5-min Rain = 0
KPD1 140923Z 35002KT 22/18 A3001 RMK A01 T02200183  RH  080%=      5-min Rain = 0
KPD1 140924Z 36003KT 22/18 A3001 RMK A01 T02190183  RH  080%=      5-min Rain = 0
KPD1 140925Z 00002KT 22/18 A3001 RMK A01 T02190183  RH  080%=      5-min Rain = 0
KPD1 140926Z 00002KT 22/18 A3001 RMK A01 T02190183  RH  080%=      5-min Rain = 0
KPD1 140927Z 00002KT 22/18 A3001 RMK A01 T02180182  RH  080%=      5-min Rain = 0
KPD1 140928Z 01002KT 22/18 A3001 RMK A01 T02180182  RH  080%=      5-min Rain = 0
KPD1 140929Z 00001KT 22/18 A3001 RMK A01 T02170182  RH  080%=      5-min Rain = 0
KPD1 140930Z 01002KT 22/18 A3001 RMK A01 T02170184  RH  081%=      5-min Rain = 0
KPD1 140931Z 02002KT 22/18 A3001 RMK A01 T02170184  RH  081%=      5-min Rain = 0
KPD1 140932Z 02002KT 22/18 A3001 RMK A01 T02160182  RH  081%=      5-min Rain = 0
KPD1 140933Z 02002KT 22/18 A3001 RMK A01 T02160182  RH  081%=      5-min Rain = 0
KPD1 140934Z 02002KT 22/18 A3001 RMK A01 T02160183  RH  081%=      5-min Rain = 0
KPD1 140935Z 02002KT 22/18 A3001 RMK A01 T02160182  RH  081%=      5-min Rain = 0
KPD1 140936Z 03003KT 22/18 A3001 RMK A01 T02150182  RH  082%=      5-min Rain = 0
KPD1 140937Z 03003KT 22/18 A3001 RMK A01 T02150184  RH  083%=      5-min Rain = 0
KPD1 140938Z 03003KT 22/19 A3001 RMK A01 T02150185  RH  083%=      5-min Rain = 0
KPD1 140939Z 04003KT 22/19 A3001 RMK A01 T02170185  RH  082%=      5-min Rain = 0
KPD1 140940Z 04002KT 22/18 A3001 RMK A01 T02180184  RH  081%=      5-min Rain = 0
KPD1 140941Z 04002KT 22/19 A3001 RMK A01 T02190185  RH  081%=      5-min Rain = 0
KPD1 140942Z 05002KT 22/19 A3001 RMK A01 T02190185  RH  081%=      5-min Rain = 0
KPD1 140943Z 04002KT 22/18 A3001 RMK A01 T02180184  RH  081%=      5-min Rain = 0
KPD1 140944Z 04003KT 22/18 A3001 RMK A01 T02190184  RH  081%=      5-min Rain = 0
KPD1 140945Z 03003KT 22/18 A3001 RMK A01 T02200184  RH  080%=      5-min Rain = 0
KPD1 140946Z 03003KT 22/18 A3001 RMK A01 T02200183  RH  080%=      5-min Rain = 0
KPD1 140947Z 02004KT 22/18 A3001 RMK A01 T02210183  RH  079%=      5-min Rain = 0
KPD1 140948Z 03004KT 22/18 A3001 RMK A01 T02200183  RH  079%=      5-min Rain = 0
KPD1 140949Z 03004KT 22/18 A3001 RMK A01 T02200183  RH  080%=      5-min Rain = 0
KPD1 140950Z 02004KT 22/18 A3001 RMK A01 T02190183  RH  080%=      5-min Rain = 0
KPD1 140951Z 01003KT 22/18 A3001 RMK A01 T02190184  RH  080%=      5-min Rain = 0
KPD1 140952Z 00003KT 22/18 A3001 RMK A01 T02180184  RH  081%=      5-min Rain = 0
KPD1 140953Z 36003KT 22/18 A3001 RMK A01 T02180184  RH  081%=      5-min Rain = 0
KPD1 140954Z 01003KT 22/18 A3001 RMK A01 T02170183  RH  081%=      5-min Rain = 0
KPD1 140955Z 01003KT 22/18 A3001 RMK A01 T02170182  RH  081%=      5-min Rain = 0
KPD1 140956Z 01003KT 22/18 A3001 RMK A01 T02160181  RH  081%=      5-min Rain = 0
KPD1 140957Z 01003KT 22/18 A3001 RMK A01 T02150180  RH  081%=      5-min Rain = 0
KPD1 140958Z 01002KT 21/18 A3001 RMK A01 T02140180  RH  081%=      5-min Rain = 0
KPD1 140959Z 01003KT 21/18 A3001 RMK A01 T02130180  RH  081%=      5-min Rain = 0
KPD1 141000Z 02003KT 21/18 A3001 RMK A01 T02130181  RH  082%=      5-min Rain = 0
KPD1 141001Z 02004KT 21/18 A3001 RMK A01 T02120180  RH  082%=      5-min Rain = 0
KPD1 141002Z 02001KT 21/18 A3001 RMK A01 T02110180  RH  082%=      5-min Rain = 0
KPD1 141003Z 07000KT 21/18 A3001 RMK A01 T02110183  RH  084%=      5-min Rain = 0
KPD1 141004Z 07001KT 21/18 A3001 RMK A01 T02100184  RH  085%=      5-min Rain = 0
KPD1 141005Z 06001KT 21/18 A3001 RMK A01 T02100182  RH  084%=      5-min Rain = 0
KPD1 141006Z 05001KT 21/18 A3001 RMK A01 T02090182  RH  085%=      5-min Rain = 0
KPD1 141007Z 05002KT 21/18 A3001 RMK A01 T02080183  RH  086%=      5-min Rain = 0
KPD1 141008Z 03002KT 21/18 A3001 RMK A01 T02080184  RH  086%=      5-min Rain = 0
KPD1 141009Z 03002KT 21/19 A3001 RMK A01 T02070185  RH  087%=      5-min Rain = 0
KPD1 141010Z 03003KT 21/19 A3001 RMK A01 T02070187  RH  088%=      5-min Rain = 0
KPD1 141011Z 04004KT 21/19 A3001 RMK A01 T02070186  RH  088%=      5-min Rain = 0
KPD1 141012Z 02004KT 21/19 A3001 RMK A01 T02070189  RH  089%=      5-min Rain = 0
KPD1 141013Z 02004KT 21/19 A3001 RMK A01 T02090192  RH  090%=      5-min Rain = 0
KPD1 141014Z 02004KT 21/19 A3001 RMK A01 T02100193  RH  090%=      5-min Rain = 0
KPD1 141015Z 02003KT 21/19 A3001 RMK A01 T02100192  RH  089%=      5-min Rain = 0
KPD1 141016Z 02003KT 21/19 A3001 RMK A01 T02100191  RH  089%=      5-min Rain = 0
KPD1 141017Z 01003KT 21/19 A30 RMK A01 T02100192  RH  089%=      5-min Rain = 0
KPD1 141018Z 01004KT 21/19 A30 RMK A01 T02100192  RH  089%=      5-min Rain = 0
KPD1 141019Z 01004KT 21/19 A30 RMK A01 T02100192  RH  089%=      5-min Rain = 0
KPD1 141020Z 01004KT 21/19 A30 RMK A01 T02100191  RH  089%=      5-min Rain = 0
KPD1 141021Z 01003KT 21/19 A30 RMK A01 T02100191  RH  089%=      5-min Rain = 0
KPD1 141022Z 00003KT 21/19 A30 RMK A01 T02100191  RH  089%=      5-min Rain = 0
KPD1 141023Z 35002KT 21/19 A30 RMK A01 T02100192  RH  089%=      5-min Rain = 0
KPD1 141024Z 00002KT 21/19 A30 RMK A01 T02100191  RH  089%=      5-min Rain = 0
KPD1 141025Z 02002KT 21/19 A30 RMK A01 T02100192  RH  089%=      5-min Rain = 0
KPD1 141026Z 04003KT 21/19 A30 RMK A01 T02100191  RH  089%=      5-min Rain = 0
KPD1 141027Z 04003KT 21/19 A30 RMK A01 T02100192  RH  089%=      5-min Rain = 0
KPD1 141028Z 04003KT 21/19 A30 RMK A01 T02100193  RH  090%=      5-min Rain = 0
KPD1 141029Z 05003KT 21/19 A30 RMK A01 T02110193  RH  090%=      5-min Rain = 0
KPD1 141030Z 05003KT 21/19 A30 RMK A01 T02120194  RH  090%=      5-min Rain = 0
KPD1 141031Z 04002KT 21/19 A30 RMK A01 T02120194  RH  089%=      5-min Rain = 0
KPD1 141032Z 05002KT 21/19 A30 RMK A01 T02120193  RH  089%=      5-min Rain = 0
KPD1 141033Z 04002KT 21/19 A30 RMK A01 T02120193  RH  089%=      5-min Rain = 0
KPD1 141034Z 03003KT 21/19 A30 RMK A01 T02120194  RH  089%=      5-min Rain = 0
KPD1 141035Z 02003KT 21/19 A30 RMK A01 T02110194  RH  090%=      5-min Rain = 0
KPD1 141036Z 02003KT 21/19 A30 RMK A01 T02110194  RH  090%=      5-min Rain = 0
KPD1 141037Z 02003KT 21/19 A30 RMK A01 T02100192  RH  089%=      5-min Rain = 0
KPD1 141038Z 02003KT 21/19 A30 RMK A01 T02100191  RH  089%=      5-min Rain = 0
KPD1 141039Z 02003KT 21/19 A30 RMK A01 T02100193  RH  090%=      5-min Rain = 0
KPD1 141040Z 03002KT 21/19 A30 RMK A01 T02100194  RH  091%=      5-min Rain = 0
KPD1 141041Z 04002KT 21/19 A30 RMK A01 T02090194  RH  091%=      5-min Rain = 0
KPD1 141042Z 05002KT 21/19 A30 RMK A01 T02090194  RH  091%=      5-min Rain = 0
KPD1 141043Z 05002KT 21/20 A3001 RMK A01 T02090195  RH  092%=      5-min Rain = 0
KPD1 141044Z 06002KT 21/20 A3001 RMK A01 T02090196  RH  092%=      5-min Rain = 0
KPD1 141045Z 07002KT 21/20 A3001 RMK A01 T02090196  RH  092%=      5-min Rain = 0
KPD1 141046Z 07002KT 21/20 A3001 RMK A01 T02090196  RH  092%=      5-min Rain = 0
KPD1 141047Z 07003KT 21/20 A3001 RMK A01 T02100197  RH  092%=      5-min Rain = 0
KPD1 141048Z 07002KT 21/20 A3001 RMK A01 T02100195  RH  092%=      5-min Rain = 0
KPD1 141049Z 07002KT 21/20 A3001 RMK A01 T02100195  RH  091%=      5-min Rain = 0
KPD1 141050Z 07002KT 21/20 A3001 RMK A01 T02100195  RH  091%=      5-min Rain = 0
KPD1 141051Z 07002KT 21/20 A3001 RMK A01 T02100197  RH  092%=      5-min Rain = 0
KPD1 141052Z 07002KT 21/20 A3001 RMK A01 T02100197  RH  092%=      5-min Rain = 0
KPD1 141053Z 07002KT 21/20 A3001 RMK A01 T02100197  RH  092%=      5-min Rain = 0
KPD1 141054Z 07002KT 21/20 A3001 RMK A01 T02090196  RH  092%=      5-min Rain = 0
KPD1 141055Z 07002KT 21/19 A3001 RMK A01 T02080194  RH  092%=      5-min Rain = 0
KPD1 141056Z 07002KT 21/19 A3001 RMK A01 T02080194  RH  092%=      5-min Rain = 0
KPD1 141057Z 08001KT 21/19 A3001 RMK A01 T02070193  RH  092%=      5-min Rain = 0
KPD1 141058Z 08001KT 21/19 A3001 RMK A01 T02070192  RH  092%=      5-min Rain = 0
KPD1 141059Z 09002KT 21/19 A3001 RMK A01 T02060192  RH  092%=      5-min Rain = 0
KPD1 141100Z 08002KT 21/19 A3001 RMK A01 T02050193  RH  093%=      5-min Rain = 0
KPD1 141101Z 07001KT 21/19 A3001 RMK A01 T02050194  RH  093%=      5-min Rain = 0
KPD1 141102Z 06001KT 21/19 A3001 RMK A01 T02050194  RH  093%=      5-min Rain = 0
KPD1 141103Z 06001KT 20/19 A3001 RMK A01 T02040194  RH  094%=      5-min Rain = 0
KPD1 141104Z 07001KT 20/19 A3001 RMK A01 T02040193  RH  094%=      5-min Rain = 0
KPD1 141105Z 06001KT 20/19 A3001 RMK A01 T02040193  RH  094%=      5-min Rain = 0
KPD1 141106Z 04001KT 20/20 A3001 RMK A01 T02030195  RH  095%=      5-min Rain = 0
KPD1 141107Z 04001KT 20/20 A3001 RMK A01 T02030195  RH  095%=      5-min Rain = 0
KPD1 141108Z 04001KT 20/19 A3001 RMK A01 T02030194  RH  094%=      5-min Rain = 0
KPD1 141109Z 04002KT 20/19 A3001 RMK A01 T02030193  RH  094%=      5-min Rain = 0
KPD1 141110Z 04002KT 20/19 A3001 RMK A01 T02030194  RH  094%=      5-min Rain = 0
KPD1 141111Z 04002KT 21/20 A3001 RMK A01 T02050198  RH  096%=      5-min Rain = 0
KPD1 141112Z 04003KT 21/20 A3001 RMK A01 T02070201  RH  097%=      5-min Rain = 0
KPD1 141113Z 03003KT 21/20 A3001 RMK A01 T02080201  RH  095%=      5-min Rain = 0
KPD1 141114Z 02003KT 21/20 A3001 RMK A01 T02080198  RH  094%=      5-min Rain = 0
KPD1 141115Z 01004KT 21/20 A3001 RMK A01 T02080198  RH  094%=      5-min Rain = 0
KPD1 141116Z 01004KT 21/20 A3001 RMK A01 T02080198  RH  094%=      5-min Rain = 0
KPD1 141117Z 36004KT 21/20 A3001 RMK A01 T02080198  RH  094%=      5-min Rain = 0
KPD1 141118Z 00004KT 21/20 A3001 RMK A01 T02070197  RH  094%=      5-min Rain = 0
KPD1 141119Z 01004KT 21/20 A3001 RMK A01 T02070197  RH  094%=      5-min Rain = 0
KPD1 141120Z 36005KT 21/20 A3001 RMK A01 T02070197  RH  094%=      5-min Rain = 0
KPD1 141121Z 35005KT 21/20 A3001 RMK A01 T02070195  RH  093%=      5-min Rain = 0
KPD1 141122Z 35005KT 21/20 A3001 RMK A01 T02070195  RH  093%=      5-min Rain = 0
KPD1 141123Z 34005KT 21/19 A3001 RMK A01 T02070194  RH  093%=      5-min Rain = 0
KPD1 141124Z 33005KT 21/20 A3001 RMK A01 T02070195  RH  093%=      5-min Rain = 0
KPD1 141125Z 32005KT 21/19 A3001 RMK A01 T02070194  RH  092%=      5-min Rain = 0
KPD1 141126Z 32005KT 21/19 A3002 RMK A01 T02070194  RH  092%=      5-min Rain = 0
KPD1 141127Z 31007KT 21/19 A3002 RMK A01 T02070194  RH  092%=      5-min Rain = 0
KPD1 141128Z 29009KT 21/20 A3002 RMK A01 T02070195  RH  093%=      5-min Rain = 0
KPD1 141129Z 28012G17KT 21/19 A3003 RMK A01 T02070194  RH  092%=      5-min Rain = 0
KPD1 141130Z 29014G20KT 21/19 A3003 RMK A01 T02060190  RH  091%=      5-min Rain = 0
KPD1 141131Z 29015KT 21/19 A3003 RMK A01 T02050186  RH  089%=      5-min Rain = 0
KPD1 141132Z 30010KT 21/19 A3003 RMK A01 T02050186  RH  089%=      5-min Rain = 0
KPD1 141133Z 30009KT 21/19 A3002 RMK A01 T02050188  RH  090%=      5-min Rain = 0
KPD1 141134Z 32007KT 21/19 A3002 RMK A01 T02060191  RH  091%=      5-min Rain = 0
KPD1 141135Z 32007KT 21/19 A3002 RMK A01 T02070193  RH  091%=      5-min Rain = 0
KPD1 141136Z 32006KT 21/19 A3002 RMK A01 T02090194  RH  091%=      5-min Rain = 0
KPD1 141137Z 32006KT 21/19 A3003 RMK A01 T02110194  RH  090%=      5-min Rain = 0
KPD1 141138Z 33005KT 21/19 A3003 RMK A01 T02110194  RH  090%=      5-min Rain = 0
KPD1 141139Z 33006KT 21/19 A3003 RMK A01 T02110193  RH  089%=      5-min Rain = 0
KPD1 141140Z 33007KT 21/19 A3003 RMK A01 T02120193  RH  089%=      5-min Rain = 0
KPD1 141141Z 33008KT 21/19 A3003 RMK A01 T02120192  RH  089%=      5-min Rain = 0
KPD1 141142Z 33007G12KT 21/19 A3003 RMK A01 T02120191  RH  088%=      5-min Rain = 0
KPD1 141143Z 33008KT 21/19 A3003 RMK A01 T02120191  RH  088%=      5-min Rain = 0
KPD1 141144Z 34009KT 21/19 A3002 RMK A01 T02120190  RH  087%=      5-min Rain = 0
KPD1 141145Z 33008KT 21/19 A3002 RMK A01 T02130190  RH  087%=      5-min Rain = 0
KPD1 141146Z 34005KT 21/19 A3002 RMK A01 T02140191  RH  087%=      5-min Rain = 0
KPD1 141147Z 35006KT 22/19 A3002 RMK A01 T02160191  RH  086%=      5-min Rain = 0
KPD1 141148Z 34006KT 22/19 A3003 RMK A01 T02160190  RH  085%=      5-min Rain = 0
KPD1 141149Z 33007KT 22/19 A3003 RMK A01 T02160190  RH  085%=      5-min Rain = 0
KPD1 141150Z 32008KT 22/19 A3004 RMK A01 T02160189  RH  085%=      5-min Rain = 0
KPD1 141151Z 31010KT 22/19 A3004 RMK A01 T02150189  RH  085%=      5-min Rain = 0
KPD1 141152Z 30010KT 22/19 A3004 RMK A01 T02160190  RH  085%=      5-min Rain = 0
KPD1 141153Z 29010KT 22/19 A3004 RMK A01 T02160189  RH  085%=      5-min Rain = 0
KPD1 141154Z 29010KT 22/19 A3004 RMK A01 T02160189  RH  085%=      5-min Rain = 0
KPD1 141155Z 29010KT 22/19 A3003 RMK A01 T02160190  RH  085%=      5-min Rain = 0
KPD1 141156Z 30009KT 22/19 A3003 RMK A01 T02160190  RH  085%=      5-min Rain = 0
KPD1 141157Z 31008KT 22/19 A3003 RMK A01 T02170191  RH  085%=      5-min Rain = 0
KPD1 141158Z 33006KT 22/19 A3003 RMK A01 T02180191  RH  085%=      5-min Rain = 0
KPD1 141159Z 35008KT 22/19 A3003 RMK A01 T02180191  RH  085%=      5-min Rain = 0
KPD1 141200Z 01007KT 22/19 A3003 RMK A01 T02180192  RH  085%=      5-min Rain = 0
KPD1 141201Z 00008KT 22/19 A3003 RMK A01 T02180191  RH  085%=      5-min Rain = 0
KPD1 141202Z 33007KT 22/19 A3003 RMK A01 T02180191  RH  085%=      5-min Rain = 0
KPD1 141203Z 32007KT 22/19 A3003 RMK A01 T02180191  RH  085%=      5-min Rain = 0
KPD1 141204Z 31008KT 22/19 A3003 RMK A01 T02180192  RH  085%=      5-min Rain = 0
KPD1 141205Z 32007KT 22/19 A3003 RMK A01 T02180192  RH  085%=      5-min Rain = 0
KPD1 141206Z 32007KT 22/19 A3003 RMK A01 T02190192  RH  085%=      5-min Rain = 0
KPD1 141207Z 33005KT 22/19 A3003 RMK A01 T02200193  RH  084%=      5-min Rain = 0
KPD1 141208Z 33005KT 22/19 A3003 RMK A01 T02210193  RH  084%=      5-min Rain = 0
KPD1 141209Z 33006KT 22/19 A3003 RMK A01 T02210193  RH  084%=      5-min Rain = 0
KPD1 141210Z 33007KT 22/19 A3003 RMK A01 T02210193  RH  084%=      5-min Rain = 0
KPD1 141211Z 34007KT 22/19 A3003 RMK A01 T02220194  RH  084%=      5-min Rain = 0
KPD1 141212Z 35007KT 22/19 A3003 RMK A01 T02220193  RH  084%=      5-min Rain = 0
KPD1 141213Z 35006KT 22/19 A3003 RMK A01 T02220194  RH  084%=      5-min Rain = 0
KPD1 141214Z 34005KT 22/19 A3003 RMK A01 T02220194  RH  084%=      5-min Rain = 0
KPD1 141215Z 35005KT 22/19 A3003 RMK A01 T02220194  RH  084%=      5-min Rain = 0
KPD1 141216Z 34004KT 22/19 A3003 RMK A01 T02220193  RH  084%=      5-min Rain = 0
KPD1 141217Z 35005KT 22/19 A3003 RMK A01 T02220193  RH  084%=      5-min Rain = 0
KPD1 141218Z 35004KT 22/19 A3003 RMK A01 T02220193  RH  084%=      5-min Rain = 0
KPD1 141219Z 34004KT 22/19 A3003 RMK A01 T02210193  RH  084%=      5-min Rain = 0
KPD1 141220Z 34006KT 22/19 A3003 RMK A01 T02210193  RH  084%=      5-min Rain = 0
KPD1 141221Z 34006KT 22/19 A3003 RMK A01 T02210193  RH  084%=      5-min Rain = 0
KPD1 141222Z 34006KT 22/19 A3003 RMK A01 T02210193  RH  084%=      5-min Rain = 0
KPD1 141223Z 34005KT 22/19 A3003 RMK A01 T02210193  RH  084%=      5-min Rain = 0
KPD1 141224Z 35005KT 22/19 A3003 RMK A01 T02210194  RH  085%=      5-min Rain = 0
KPD1 141225Z 35004KT 22/19 A3003 RMK A01 T02200193  RH  085%=      5-min Rain = 0
KPD1 141226Z 00004KT 22/19 A3003 RMK A01 T02200194  RH  085%=      5-min Rain = 0
KPD1 141227Z 34002KT 22/19 A3004 RMK A01 T02200193  RH  085%=      5-min Rain = 0
KPD1 141228Z 20001KT 22/19 A3004 RMK A01 T02210194  RH  085%=      5-min Rain = 0
KPD1 141229Z 19005KT 22/19 A3004 RMK A01 T02190193  RH  085%=      5-min Rain = 0
KPD1 141230Z 19006KT 22/19 A3004 RMK A01 T02190193  RH  085%=      5-min Rain = 0
KPD1 141231Z 20007KT 22/19 A3004 RMK A01 T02180192  RH  085%=      5-min Rain = 0
KPD1 141232Z 20005KT 22/19 A3004 RMK A01 T02170192  RH  086%=      5-min Rain = 0
KPD1 141233Z 20004KT 22/19 A3004 RMK A01 T02170192  RH  086%=      5-min Rain = 0
KPD1 141234Z 20004KT 22/19 A3004 RMK A01 T02170192  RH  085%=      5-min Rain = 0
KPD1 141235Z 23003KT 22/19 A3004 RMK A01 T02170192  RH  085%=      5-min Rain = 0
KPD1 141236Z 27002KT 22/19 A3004 RMK A01 T02170192  RH  085%=      5-min Rain = 0
KPD1 141237Z 29002KT 22/19 A3004 RMK A01 T02170192  RH  085%=      5-min Rain = 0
KPD1 141238Z 30001KT 22/19 A3004 RMK A01 T02170191  RH  085%=      5-min Rain = 0
KPD1 141239Z 30001KT 22/19 A3004 RMK A01 T02170190  RH  085%=      5-min Rain = 0
KPD1 141240Z 28002KT 22/19 A3004 RMK A01 T02160190  RH  085%=      5-min Rain = 0
KPD1 141241Z 29003KT 22/19 A3004 RMK A01 T02160190  RH  085%=      5-min Rain = 0
KPD1 141242Z 30004KT 22/19 A3004 RMK A01 T02160190  RH  086%=      5-min Rain = 0
KPD1 141243Z 31005KT 22/19 A3003 RMK A01 T02160191  RH  086%=      5-min Rain = 0
KPD1 141244Z 31006KT 22/19 A3003 RMK A01 T02150191  RH  086%=      5-min Rain = 0
KPD1 141245Z 31006KT 22/19 A3003 RMK A01 T02160192  RH  086%=      5-min Rain = 0
KPD1 141246Z 32006KT 22/19 A3003 RMK A01 T02150192  RH  086%=      5-min Rain = 0
KPD1 141247Z 32006KT 22/19 A3003 RMK A01 T02160192  RH  086%=      5-min Rain = 0
KPD1 141248Z 32006KT 22/19 A3003 RMK A01 T02160192  RH  086%=      5-min Rain = 0
KPD1 141249Z 33006KT 22/19 A3003 RMK A01 T02170193  RH  086%=      5-min Rain = 0
KPD1 141250Z 33005KT 22/19 A3003 RMK A01 T02180194  RH  086%=      5-min Rain = 0
KPD1 141251Z 33005KT 22/19 A3003 RMK A01 T02180194  RH  086%=      5-min Rain = 0
KPD1 141252Z 34005KT 22/19 A3003 RMK A01 T02190194  RH  086%=      5-min Rain = 0
KPD1 141253Z 35005KT 22/20 A3003 RMK A01 T02200195  RH  086%=      5-min Rain = 0
KPD1 141254Z 34006KT 22/19 A3003 RMK A01 T02200194  RH  085%=      5-min Rain = 0
KPD1 141255Z 33005KT 22/19 A3003 RMK A01 T02210194  RH  085%=      5-min Rain = 0
KPD1 141256Z 32004KT 22/19 A3003 RMK A01 T02210194  RH  085%=      5-min Rain = 0
KPD1 141257Z 32004KT 22/19 A3003 RMK A01 T02210194  RH  085%=      5-min Rain = 0
KPD1 141258Z 33002KT 22/19 A3003 RMK A01 T02210194  RH  085%=      5-min Rain = 0
KPD1 141259Z 34001KT 22/19 A3004 RMK A01 T02210194  RH  085%=      5-min Rain = 0
KPD1 141300Z 15000KT 22/19 A3004 RMK A01 T02210194  RH  085%=      5-min Rain = 0
KPD1 141301Z 02000KT 22/19 A3004 RMK A01 T02220194  RH  084%=      5-min Rain = 0
KPD1 141302Z 00001KT 22/19 A3004 RMK A01 T02220194  RH  084%=      5-min Rain = 0
KPD1 141303Z 35002KT 22/19 A3003 RMK A01 T02220193  RH  084%=      5-min Rain = 0
KPD1 141304Z 33002KT 22/19 A3003 RMK A01 T02230194  RH  084%=      5-min Rain = 0
KPD1 141305Z 31003KT 22/19 A3004 RMK A01 T02230194  RH  084%=      5-min Rain = 0
KPD1 141306Z 31005KT 22/19 A3004 RMK A01 T02230194  RH  083%=      5-min Rain = 0
KPD1 141307Z 32005KT 22/19 A3004 RMK A01 T02230193  RH  083%=      5-min Rain = 0
KPD1 141308Z 33005KT 22/19 A3003 RMK A01 T02230194  RH  083%=      5-min Rain = 0
KPD1 141309Z 32004KT 22/19 A3003 RMK A01 T02230193  RH  083%=      5-min Rain = 0
KPD1 141310Z 33004KT 22/19 A3003 RMK A01 T02230193  RH  083%=      5-min Rain = 0
KPD1 141311Z 34005KT 22/19 A3003 RMK A01 T02230194  RH  083%=      5-min Rain = 0
KPD1 141312Z 35004KT 22/19 A3003 RMK A01 T02240194  RH  083%=      5-min Rain = 0
KPD1 141313Z 35004KT 23/19 A3003 RMK A01 T02250194  RH  083%=      5-min Rain = 0
KPD1 141314Z 34004KT 23/19 A3003 RMK A01 T02260194  RH  082%=      5-min Rain = 0
KPD1 141315Z 33003KT 23/19 A3003 RMK A01 T02270194  RH  082%=      5-min Rain = 0
KPD1 141316Z 00001KT 23/19 A3003 RMK A01 T02270194  RH  081%=      5-min Rain = 0
KPD1 141317Z 04000KT 23/19 A3003 RMK A01 T02270194  RH  081%=      5-min Rain = 0
KPD1 141318Z 02001KT 23/20 A3003 RMK A01 T02290195  RH  081%=      5-min Rain = 0
KPD1 141319Z 01002KT 23/19 A3003 RMK A01 T02300194  RH  080%=      5-min Rain = 0
KPD1 141320Z 35003KT 23/20 A3003 RMK A01 T02320195  RH  080%=      5-min Rain = 0
KPD1 141321Z 34004KT 23/20 A3003 RMK A01 T02320195  RH  079%=      5-min Rain = 0
KPD1 141322Z 33004KT 23/19 A3003 RMK A01 T02330194  RH  079%=      5-min Rain = 0
KPD1 141323Z 33004KT 23/19 A3003 RMK A01 T02330194  RH  079%=      5-min Rain = 0
KPD1 141324Z 34005KT 23/19 A3003 RMK A01 T02340194  RH  078%=      5-min Rain = 0
KPD1 141325Z 34005KT 23/19 A3003 RMK A01 T02340194  RH  078%=      5-min Rain = 0
KPD1 141326Z 34003KT 24/19 A3003 RMK A01 T02350194  RH  078%=      5-min Rain = 0
KPD1 141327Z 34003KT 24/20 A3003 RMK A01 T02360195  RH  078%=      5-min Rain = 0
KPD1 141328Z 33004KT 24/20 A3004 RMK A01 T02370195  RH  077%=      5-min Rain = 0
KPD1 141329Z 36002KT 24/19 A3004 RMK A01 T02380194  RH  076%=      5-min Rain = 0
KPD1 141330Z 34002KT 24/20 A3004 RMK A01 T02390196  RH  077%=      5-min Rain = 0
KPD1 141331Z 34005KT 24/20 A3004 RMK A01 T02400196  RH  076%=      5-min Rain = 0
KPD1 141332Z 33005KT 24/20 A3003 RMK A01 T02410196  RH  076%=      5-min Rain = 0
KPD1 141333Z 33005KT 24/20 A3003 RMK A01 T02410196  RH  076%=      5-min Rain = 0
KPD1 141334Z 34005KT 24/20 A3003 RMK A01 T02420196  RH  076%=      5-min Rain = 0
KPD1 141335Z 34005KT 24/20 A3003 RMK A01 T02430197  RH  076%=      5-min Rain = 0
KPD1 141336Z 35004KT 24/20 A3003 RMK A01 T02430197  RH  075%=      5-min Rain = 0
KPD1 141337Z 34003KT 24/20 A3003 RMK A01 T02440197  RH  075%=      5-min Rain = 0
KPD1 141338Z 34004KT 25/20 A3003 RMK A01 T02450198  RH  075%=      5-min Rain = 0
KPD1 141339Z 34004KT 25/20 A3003 RMK A01 T02470198  RH  074%=      5-min Rain = 0
KPD1 141340Z 33004KT 25/20 A3003 RMK A01 T02480198  RH  074%=      5-min Rain = 0
KPD1 141341Z 34003KT 25/20 A3003 RMK A01 T02500198  RH  073%=      5-min Rain = 0
KPD1 141342Z 32003KT 25/20 A3003 RMK A01 T02510198  RH  073%=      5-min Rain = 0
KPD1 141343Z 33001KT 25/20 A3003 RMK A01 T02520198  RH  072%=      5-min Rain = 0
KPD1 141344Z 12000KT 25/20 A3003 RMK A01 T02530198  RH  072%=      5-min Rain = 0
KPD1 141345Z 01001KT 26/20 A3003 RMK A01 T02550198  RH  071%=      5-min Rain = 0
KPD1 141346Z 33001KT 26/20 A3003 RMK A01 T02570197  RH  070%=      5-min Rain = 0
KPD1 141347Z 03000KT 26/20 A3003 RMK A01 T02580196  RH  068%=      5-min Rain = 0
KPD1 141348Z 35000KT 26/20 A3003 RMK A01 T02610196  RH  068%=      5-min Rain = 0
KPD1 141349Z 33000KT 26/20 A3004 RMK A01 T02630195  RH  066%=      5-min Rain = 0
KPD1 141350Z 25000KT 26/20 A3004 RMK A01 T02640196  RH  066%=      5-min Rain = 0
KPD1 141351Z 22001KT 27/20 A3004 RMK A01 T02650197  RH  066%=      5-min Rain = 0
KPD1 141352Z 21000KT 27/20 A3004 RMK A01 T02650196  RH  066%=      5-min Rain = 0
KPD1 141353Z 17002KT 27/20 A3004 RMK A01 T02650197  RH  066%=      5-min Rain = 0
KPD1 141354Z 15002KT 27/20 A3004 RMK A01 T02660199  RH  067%=      5-min Rain = 0
KPD1 141355Z 16002KT 27/20 A3004 RMK A01 T02660198  RH  066%=      5-min Rain = 0
KPD1 141356Z 17001KT 27/20 A3004 RMK A01 T02660198  RH  066%=      5-min Rain = 0
KPD1 141357Z 17000KT 27/20 A3004 RMK A01 T02660197  RH  066%=      5-min Rain = 0
KPD1 141358Z 30000KT 27/20 A3004 RMK A01 T02650197  RH  066%=      5-min Rain = 0
KPD1 141359Z 00000KT 27/20 A3004 RMK A01 T02650197  RH  066%=      5-min Rain = 0
KPD1 141400Z 08000KT 27/20 A3004 RMK A01 T02660197  RH  066%=      5-min Rain = 0
KPD1 141401Z 05001KT 27/20 A3004 RMK A01 T02660198  RH  066%=      5-min Rain = 0
KPD1 141402Z 01000KT 27/20 A3004 RMK A01 T02660198  RH  066%=      5-min Rain = 0
KPD1 141403Z 02003KT 27/20 A3003 RMK A01 T02660199  RH  067%=      5-min Rain = 0
KPD1 141404Z 02002KT 26/20 A3003 RMK A01 T02640199  RH  067%=      5-min Rain = 0
KPD1 141405Z 01002KT 26/20 A3003 RMK A01 T02610199  RH  068%=      5-min Rain = 0
KPD1 141406Z 01003KT 26/20 A3003 RMK A01 T02600199  RH  069%=      5-min Rain = 0
KPD1 141407Z 01002KT 26/20 A3003 RMK A01 T02590199  RH  070%=      5-min Rain = 0
KPD1 141408Z 01002KT 26/20 A3003 RMK A01 T02580199  RH  070%=      5-min Rain = 0
KPD1 141409Z 02002KT 26/20 A3003 RMK A01 T02570199  RH  070%=      5-min Rain = 0
KPD1 141410Z 02001KT 26/20 A3003 RMK A01 T02570199  RH  070%=      5-min Rain = 0
KPD1 141411Z 03000KT 26/20 A3004 RMK A01 T02560199  RH  070%=      5-min Rain = 0
KPD1 141412Z 00000KT 26/20 A3004 RMK A01 T02570199  RH  070%=      5-min Rain = 0
KPD1 141413Z 00000KT 26/20 A3004 RMK A01 T02570199  RH  070%=      5-min Rain = 0
KPD1 141414Z 19000KT 26/20 A3004 RMK A01 T02580199  RH  070%=      5-min Rain = 0
KPD1 141415Z 22001KT 26/20 A3004 RMK A01 T02580199  RH  070%=      5-min Rain = 0
KPD1 141416Z 26001KT 26/20 A3004 RMK A01 T02580199  RH  070%=      5-min Rain = 0
KPD1 141417Z 26001KT 26/20 A3004 RMK A01 T02580199  RH  070%=      5-min Rain = 0
KPD1 141418Z 24002KT 26/20 A3004 RMK A01 T02590200  RH  070%=      5-min Rain = 0
KPD1 141419Z 22002KT 26/20 A3004 RMK A01 T02590200  RH  070%=      5-min Rain = 0
KPD1 141420Z 21003KT 26/20 A3004 RMK A01 T02600200  RH  070%=      5-min Rain = 0
KPD1 141421Z 21004KT 26/20 A3004 RMK A01 T02600198  RH  069%=      5-min Rain = 0
KPD1 141422Z 20003KT 26/20 A3004 RMK A01 T02610199  RH  069%=      5-min Rain = 0
KPD1 141423Z 22003KT 26/20 A3004 RMK A01 T02630199  RH  068%=      5-min Rain = 0
KPD1 141424Z 22002KT 27/20 A3004 RMK A01 T02650198  RH  066%=      5-min Rain = 0
KPD1 141425Z 23001KT 27/20 A3004 RMK A01 T02670199  RH  067%=      5-min Rain = 0
KPD1 141426Z 25002KT 27/20 A3004 RMK A01 T02690198  RH  065%=      5-min Rain = 0
KPD1 141427Z 23001KT 27/20 A3004 RMK A01 T02700197  RH  065%=      5-min Rain = 0
KPD1 141428Z 24002KT 27/20 A3004 RMK A01 T02710199  RH  064%=      5-min Rain = 0
KPD1 141429Z 20003KT 27/20 A3004 RMK A01 T02730198  RH  063%=      5-min Rain = 0
KPD1 141430Z 22004KT 27/20 A3004 RMK A01 T02730197  RH  063%=      5-min Rain = 0
KPD1 141431Z 22003KT 27/20 A3004 RMK A01 T02740196  RH  063%=      5-min Rain = 0
KPD1 141432Z 22003KT 27/20 A3004 RMK A01 T02730196  RH  063%=      5-min Rain = 0
KPD1 141433Z 29003KT 27/20 A3004 RMK A01 T02730196  RH  063%=      5-min Rain = 0
KPD1 141434Z 30004KT 27/19 A3004 RMK A01 T02730193  RH  062%=      5-min Rain = 0
KPD1 141435Z 29003KT 27/19 A3003 RMK A01 T02740192  RH  061%=      5-min Rain = 0
KPD1 141436Z 31003KT 28/19 A3003 RMK A01 T02750192  RH  060%=      5-min Rain = 0
KPD1 141437Z 29004KT 28/19 A3004 RMK A01 T02770193  RH  060%=      5-min Rain = 0
KPD1 141438Z 25003KT 28/19 A3004 RMK A01 T02790194  RH  060%=      5-min Rain = 0
KPD1 141439Z 23003KT 28/20 A3004 RMK A01 T02820196  RH  059%=      5-min Rain = 0
KPD1 141440Z 22005KT 29/20 A3004 RMK A01 T02850195  RH  058%=      5-min Rain = 0
KPD1 141441Z 21004KT 29/20 A3004 RMK A01 T02860195  RH  058%=      5-min Rain = 0
KPD1 141442Z 17004KT 29/20 A3004 RMK A01 T02870198  RH  059%=      5-min Rain = 0
KPD1 141443Z 18003KT 29/20 A3004 RMK A01 T02870198  RH  059%=      5-min Rain = 0
KPD1 141444Z 19001KT 29/20 A3004 RMK A01 T02870197  RH  058%=      5-min Rain = 0
KPD1 141445Z 18002KT 29/20 A3004 RMK A01 T02880196  RH  058%=      5-min Rain = 0
KPD1 141446Z 20002KT 29/20 A3004 RMK A01 T02890197  RH  057%=      5-min Rain = 0
KPD1 141447Z 22004KT 29/20 A3004 RMK A01 T02900196  RH  057%=      5-min Rain = 0
KPD1 141448Z 22003KT 29/19 A3004 RMK A01 T02900193  RH  056%=      5-min Rain = 0
KPD1 141449Z 26003KT 29/19 A3004 RMK A01 T02900191  RH  055%=      5-min Rain = 0
KPD1 141450Z 26002KT 29/19 A3003 RMK A01 T02900191  RH  055%=      5-min Rain = 0
KPD1 141451Z 21002KT 29/19 A3003 RMK A01 T02920191  RH  054%=      5-min Rain = 0
KPD1 141452Z 22003KT 29/19 A3003 RMK A01 T02940191  RH  054%=      5-min Rain = 0
KPD1 141453Z 23003KT 29/19 A3003 RMK A01 T02940191  RH  054%=      5-min Rain = 0
KPD1 141454Z 23004KT 30/19 A3003 RMK A01 T02950191  RH  053%=      5-min Rain = 0
KPD1 141455Z 23003KT 30/19 A3003 RMK A01 T02970192  RH  053%=      5-min Rain = 0
KPD1 141456Z 26003KT 30/19 A3003 RMK A01 T02970187  RH  052%=      5-min Rain = 0
KPD1 141457Z 24002KT 30/19 A3003 RMK A01 T02970189  RH  052%=      5-min Rain = 0
KPD1 141458Z 26002KT 30/19 A3003 RMK A01 T02970187  RH  052%=      5-min Rain = 0
KPD1 141459Z 21002KT 30/19 A3003 RMK A01 T02980189  RH  052%=      5-min Rain = 0
KPD1 141500Z 25004KT 30/19 A3004 RMK A01 T03000191  RH  052%=      5-min Rain = 0
KPD1 141501Z 23003KT 30/19 A3004 RMK A01 T03010192  RH  052%=      5-min Rain = 0
KPD1 141502Z 25003KT 30/19 A3004 RMK A01 T03010189  RH  051%=      5-min Rain = 0
KPD1 141503Z 27003KT 30/18 A3004 RMK A01 T03000184  RH  050%=      5-min Rain = 0
KPD1 141504Z 28001KT 30/18 A3003 RMK A01 T03000175  RH  047%=      5-min Rain = 0
KPD1 141505Z 31000KT 30/18 A3003 RMK A01 T02990175  RH  047%=      5-min Rain = 0
KPD1 141506Z 32001KT 30/18 A3003 RMK A01 T03000177  RH  048%=      5-min Rain = 0
KPD1 141507Z 00000KT 30/18 A3004 RMK A01 T03000180  RH  049%=      5-min Rain = 0
KPD1 141508Z 20000KT 30/18 A3004 RMK A01 T03010183  RH  049%=      5-min Rain = 0
KPD1 141509Z 18000KT 30/19 A3004 RMK A01 T03020185  RH  050%=      5-min Rain = 0
KPD1 141510Z 08002KT 30/19 A3004 RMK A01 T03030193  RH  052%=      5-min Rain = 0
KPD1 141511Z 06002KT 30/20 A3004 RMK A01 T03040198  RH  053%=      5-min Rain = 0
KPD1 141512Z 04002KT 30/20 A3004 RMK A01 T03030199  RH  054%=      5-min Rain = 0
KPD1 141513Z 05003KT 30/20 A3004 RMK A01 T03020200  RH  055%=      5-min Rain = 0
KPD1 141514Z 06002KT 30/20 A3004 RMK A01 T03010201  RH  055%=      5-min Rain = 0
KPD1 141515Z 07002KT 30/20 A3004 RMK A01 T03010199  RH  054%=      5-min Rain = 0
KPD1 141516Z 09002KT 30/20 A3004 RMK A01 T03010199  RH  054%=      5-min Rain = 0
KPD1 141517Z 10003KT 30/20 A3004 RMK A01 T03030201  RH  054%=      5-min Rain = 0
KPD1 141518Z 11003KT 30/20 A3004 RMK A01 T03030200  RH  054%=      5-min Rain = 0
KPD1 141519Z 11002KT 30/20 A3004 RMK A01 T03030199  RH  054%=      5-min Rain = 0
KPD1 141520Z 10001KT 31/20 A3004 RMK A01 T03050195  RH  052%=      5-min Rain = 0
KPD1 141521Z 07001KT 31/19 A3004 RMK A01 T03070189  RH  049%=      5-min Rain = 0
KPD1 141522Z 09001KT 31/19 A3004 RMK A01 T03100185  RH  048%=      5-min Rain = 0
KPD1 141523Z 14001KT 31/19 A3004 RMK A01 T03130185  RH  047%=      5-min Rain = 0
KPD1 141524Z 14002KT 32/19 A3004 RMK A01 T03170194  RH  048%=      5-min Rain = 0
KPD1 141525Z 14002KT 32/19 A3004 RMK A01 T03190194  RH  048%=      5-min Rain = 0
KPD1 141526Z 11003KT 32/20 A3004 RMK A01 T03210196  RH  048%=      5-min Rain = 0
KPD1 141527Z 14002KT 32/19 A3004 RMK A01 T03220192  RH  046%=      5-min Rain = 0
KPD1 141528Z 11003KT 32/19 A3004 RMK A01 T03240193  RH  046%=      5-min Rain = 0
KPD1 141529Z 13002KT 33/19 A3004 RMK A01 T03260191  RH  045%=      5-min Rain = 0
KPD1 141530Z 15002KT 33/20 A3004 RMK A01 T03270197  RH  046%=      5-min Rain = 0
KPD1 141531Z 15003KT 33/19 A3004 RMK A01 T03280194  RH  045%=      5-min Rain = 0
KPD1 141532Z 14002KT 33/20 A3004 RMK A01 T03270195  RH  046%=      5-min Rain = 0
KPD1 141533Z 07002KT 33/19 A3004 RMK A01 T03270190  RH  044%=      5-min Rain = 0
KPD1 141534Z 10002KT 33/18 A3004 RMK A01 T03280183  RH  042%=      5-min Rain = 0
KPD1 141535Z 07002KT 33/18 A3004 RMK A01 T03280183  RH  042%=      5-min Rain = 0
KPD1 141536Z 12002KT 33/18 A3004 RMK A01 T03270184  RH  043%=      5-min Rain = 0
KPD1 141537Z 13003KT 33/19 A3004 RMK A01 T03270185  RH  043%=      5-min Rain = 0
KPD1 141538Z 09001KT 33/19 A3004 RMK A01 T03270186  RH  043%=      5-min Rain = 0
KPD1 141539Z 16001KT 33/19 A3004 RMK A01 T03270186  RH  043%=      5-min Rain = 0
KPD1 141540Z 13003KT 33/18 A3004 RMK A01 T03280182  RH  042%=      5-min Rain = 0
KPD1 141541Z 12002KT 33/18 A3004 RMK A01 T03290180  RH  041%=      5-min Rain = 0
KPD1 141542Z 14003KT 33/18 A3004 RMK A01 T03290179  RH  041%=      5-min Rain = 0
KPD1 141543Z 14003KT 33/18 A3004 RMK A01 T03290180  RH  041%=      5-min Rain = 0
KPD1 141544Z 15003KT 33/18 A3004 RMK A01 T03270178  RH  041%=      5-min Rain = 0
KPD1 141545Z 16002KT 33/18 A3004 RMK A01 T03260177  RH  041%=      5-min Rain = 0
KPD1 141546Z 18002KT 33/18 A3004 RMK A01 T03260178  RH  041%=      5-min Rain = 0
KPD1 141547Z 16002KT 33/18 A3004 RMK A01 T03270179  RH  041%=      5-min Rain = 0
KPD1 141548Z 17003KT 33/18 A3004 RMK A01 T03290177  RH  040%=      5-min Rain = 0
KPD1 141549Z 16003KT 33/18 A3004 RMK A01 T03300175  RH  040%=      5-min Rain = 0
KPD1 141550Z 16002KT 33/18 A3004 RMK A01 T03300176  RH  040%=      5-min Rain = 0
KPD1 141551Z 09003KT 33/18 A3004 RMK A01 T03310175  RH  039%=      5-min Rain = 0
KPD1 141552Z 07004KT 33/17 A3004 RMK A01 T03330174  RH  039%=      5-min Rain = 0
KPD1 141553Z 07003KT 33/17 A3004 RMK A01 T03320173  RH  039%=      5-min Rain = 0
KPD1 141554Z 07002KT 33/17 A3004 RMK A01 T03310173  RH  039%=      5-min Rain = 0
KPD1 141555Z 08002KT 33/17 A3004 RMK A01 T03310173  RH  039%=      5-min Rain = 0
KPD1 141556Z 09001KT 33/17 A3004 RMK A01 T03310172  RH  039%=      5-min Rain = 0
KPD1 141557Z 19000KT 33/17 A3004 RMK A01 T03320170  RH  038%=      5-min Rain = 0
KPD1 141558Z 11003KT 33/17 A3004 RMK A01 T03320170  RH  038%=      5-min Rain = 0
KPD1 141559Z 12003KT 33/17 A3004 RMK A01 T03330167  RH  037%=      5-min Rain = 0
KPD1 141600Z 11002KT 34/17 A3004 RMK A01 T03350167  RH  037%=      5-min Rain = 0
KPD1 141601Z 08005KT 34/17 A3004 RMK A01 T03360170  RH  037%=      5-min Rain = 0
KPD1 141602Z 08005KT 34/17 A3004 RMK A01 T03380173  RH  038%=      5-min Rain = 0
KPD1 141603Z 08004KT 34/17 A3004 RMK A01 T03370173  RH  038%=      5-min Rain = 0
KPD1 141604Z 03001KT 34/17 A3004 RMK A01 T03370174  RH  038%=      5-min Rain = 0
KPD1 141605Z 04000KT 34/17 A3004 RMK A01 T03370174  RH  038%=      5-min Rain = 0
KPD1 141606Z 16002KT 34/17 A3004 RMK A01 T03370171  RH  037%=      5-min Rain = 0
KPD1 141607Z 16002KT 34/17 A3004 RMK A01 T03380171  RH  037%=      5-min Rain = 0
KPD1 141608Z 13002KT 34/17 A3004 RMK A01 T03410172  RH  037%=      5-min Rain = 0
KPD1 141609Z 13003KT 34/17 A3004 RMK A01 T03420173  RH  037%=      5-min Rain = 0
KPD1 141610Z 15002KT 34/17 A3004 RMK A01 T03430173  RH  036%=      5-min Rain = 0
KPD1 141611Z 17002KT 34/17 A3004 RMK A01 T03430173  RH  036%=      5-min Rain = 0
KPD1 141612Z 20002KT 34/17 A3004 RMK A01 T03430173  RH  036%=      5-min Rain = 0
KPD1 141613Z 18001KT 34/17 A3004 RMK A01 T03430172  RH  036%=      5-min Rain = 0
KPD1 141614Z 12002KT 34/17 A3004 RMK A01 T03430173  RH  036%=      5-min Rain = 0
KPD1 141615Z 09003KT 34/17 A3004 RMK A01 T03430171  RH  036%=      5-min Rain = 0
KPD1 141616Z 09002KT 34/17 A3004 RMK A01 T03420171  RH  036%=      5-min Rain = 0
KPD1 141617Z 09002KT 34/17 A3004 RMK A01 T03430172  RH  036%=      5-min Rain = 0
KPD1 141618Z 09002KT 34/17 A3004 RMK A01 T03440173  RH  036%=      5-min Rain = 0
KPD1 141619Z 04002KT 35/17 A3004 RMK A01 T03460171  RH  035%=      5-min Rain = 0
KPD1 141620Z 00000KT 35/17 A3004 RMK A01 T03450169  RH  035%=      5-min Rain = 0
KPD1 141621Z 05001KT 34/17 A3004 RMK A01 T03430171  RH  036%=      5-min Rain = 0
KPD1 141622Z 02000KT 34/17 A3004 RMK A01 T03430168  RH  035%=      5-min Rain = 0
KPD1 141623Z 14001KT 34/17 A3004 RMK A01 T03430165  RH  035%=      5-min Rain = 0
KPD1 141624Z 13003KT 34/15 A3004 RMK A01 T03440154  RH  032%=      5-min Rain = 0
KPD1 141625Z 01003KT 35/16 A3004 RMK A01 T03470163  RH  033%=      5-min Rain = 0
KPD1 141626Z 31002KT 35/17 A3004 RMK A01 T03500169  RH  034%=      5-min Rain = 0
KPD1 141627Z 28003KT 35/16 A3004 RMK A01 T03490158  RH  032%=      5-min Rain = 0
KPD1 141628Z 33003KT 35/15 A3004 RMK A01 T03480145  RH  030%=      5-min Rain = 0
KPD1 141629Z 32001KT 35/15 A3004 RMK A01 T03490145  RH  030%=      5-min Rain = 0
KPD1 141630Z 26002KT 35/14 A3004 RMK A01 T03510143  RH  029%=      5-min Rain = 0
KPD1 141631Z 30002KT 35/15 A3004 RMK A01 T03530146  RH  029%=      5-min Rain = 0
KPD1 141632Z 28003KT 36/14 A3004 RMK A01 T03560144  RH  028%=      5-min Rain = 0
KPD1 141633Z 29006KT 36/15 A3004 RMK A01 T03580145  RH  028%=      5-min Rain = 0
KPD1 141634Z 28005KT 36/14 A3004 RMK A01 T03600143  RH  027%=      5-min Rain = 0
KPD1 141635Z 28008KT 36/14 A3004 RMK A01 T03610144  RH  027%=      5-min Rain = 0
KPD1 141636Z 28006KT 36/14 A3004 RMK A01 T03620144  RH  027%=      5-min Rain = 0
KPD1 141637Z 26006KT 36/14 A3004 RMK A01 T03620143  RH  027%=      5-min Rain = 0
KPD1 141638Z 26007KT 36/14 A3004 RMK A01 T03610140  RH  027%=      5-min Rain = 0
KPD1 141639Z 26006KT 36/14 A3004 RMK A01 T03590138  RH  027%=      5-min Rain = 0
KPD1 141640Z 27006KT 36/14 A3004 RMK A01 T03570141  RH  027%=      5-min Rain = 0
KPD1 141641Z 27004KT 36/14 A3004 RMK A01 T03590142  RH  027%=      5-min Rain = 0
KPD1 141642Z 25006KT 36/14 A3004 RMK A01 T03600141  RH  027%=      5-min Rain = 0
KPD1 141643Z 27007KT 36/14 A3004 RMK A01 T03600139  RH  027%=      5-min Rain = 0
KPD1 141644Z 27005KT 36/14 A3004 RMK A01 T03610138  RH  026%=      5-min Rain = 0
KPD1 141645Z 26006KT 36/14 A3004 RMK A01 T03620138  RH  026%=      5-min Rain = 0
KPD1 141646Z 25006KT 36/14 A3004 RMK A01 T03620140  RH  026%=      5-min Rain = 0
KPD1 141647Z 23005KT 36/14 A3004 RMK A01 T03630138  RH  026%=      5-min Rain = 0
KPD1 141648Z 24003KT 36/14 A3004 RMK A01 T03630139  RH  026%=      5-min Rain = 0
KPD1 141649Z 24003KT 37/14 A3004 RMK A01 T03660142  RH  026%=      5-min Rain = 0
KPD1 141650Z 26005KT 37/14 A3004 RMK A01 T03680144  RH  026%=      5-min Rain = 0
KPD1 141651Z 27003KT 37/14 A3004 RMK A01 T03680141  RH  026%=      5-min Rain = 0
KPD1 141652Z 23004KT 37/14 A3004 RMK A01 T03680141  RH  026%=      5-min Rain = 0
KPD1 141653Z 23004KT 37/14 A3004 RMK A01 T03690137  RH  025%=      5-min Rain = 0
KPD1 141654Z 23004KT 37/14 A3004 RMK A01 T03690137  RH  025%=      5-min Rain = 0
KPD1 141655Z 23004KT 37/14 A3004 RMK A01 T03690138  RH  025%=      5-min Rain = 0
KPD1 141656Z 24004KT 37/14 A3004 RMK A01 T03700139  RH  025%=      5-min Rain = 0
KPD1 141657Z 27003KT 37/14 A3004 RMK A01 T03720144  RH  026%=      5-min Rain = 0
KPD1 141658Z 24004KT 37/14 A3004 RMK A01 T03740143  RH  025%=      5-min Rain = 0
KPD1 141659Z 23008KT 37/14 A3004 RMK A01 T03740139  RH  025%=      5-min Rain = 0
KPD1 141700Z 26006KT 37/14 A3004 RMK A01 T03740143  RH  025%=      5-min Rain = 0
KPD1 141701Z 24004KT 37/14 A3004 RMK A01 T03730140  RH  025%=      5-min Rain = 0
KPD1 141702Z 23004KT 37/14 A3004 RMK A01 T03740140  RH  025%=      5-min Rain = 0
KPD1 141703Z 21004KT 37/14 A3004 RMK A01 T03740139  RH  025%=      5-min Rain = 0
KPD1 141704Z 22005KT 37/14 A3004 RMK A01 T03730141  RH  025%=      5-min Rain = 0
KPD1 141705Z 20005KT 37/14 A3004 RMK A01 T03740140  RH  025%=      5-min Rain = 0
KPD1 141706Z 19004KT 38/14 A3004 RMK A01 T03750140  RH  025%=      5-min Rain = 0
KPD1 141707Z 24003KT 38/14 A3004 RMK A01 T03750140  RH  025%=      5-min Rain = 0
KPD1 141708Z 29006KT 37/14 A3004 RMK A01 T03740143  RH  025%=      5-min Rain = 0
KPD1 141709Z 27006KT 37/14 A3004 RMK A01 T03740141  RH  025%=      5-min Rain = 0
KPD1 141710Z 27003KT 37/14 A3004 RMK A01 T03720137  RH  025%=      5-min Rain = 0
KPD1 141711Z 28003KT 37/14 A3004 RMK A01 T03710139  RH  025%=      5-min Rain = 0
KPD1 141712Z 34002KT 37/14 A3004 RMK A01 T03700138  RH  025%=      5-min Rain = 0
KPD1 141713Z 27003KT 37/13 A3004 RMK A01 T03690134  RH  025%=      5-min Rain = 0
KPD1 141714Z 28005KT 37/14 A3004 RMK A01 T03690135  RH  025%=      5-min Rain = 0
KPD1 141715Z 25003KT 37/13 A3004 RMK A01 T03700134  RH  025%=      5-min Rain = 0
KPD1 141716Z 01001KT 37/13 A3004 RMK A01 T03700133  RH  024%=      5-min Rain = 0
KPD1 141717Z 01002KT 37/13 A3004 RMK A01 T03710134  RH  024%=      5-min Rain = 0
KPD1 141718Z 00002KT 37/14 A3004 RMK A01 T03710138  RH  025%=      5-min Rain = 0
KPD1 141719Z 29002KT 37/14 A3004 RMK A01 T03730140  RH  025%=      5-min Rain = 0
KPD1 141720Z 24001KT 37/14 A3003 RMK A01 T03740137  RH  024%=      5-min Rain = 0
KPD1 141721Z 25007KT 38/14 A3004 RMK A01 T03750136  RH  024%=      5-min Rain = 0
KPD1 141722Z 24005KT 38/13 A3004 RMK A01 T03760130  RH  023%=      5-min Rain = 0
KPD1 141723Z 28005KT 38/13 A3003 RMK A01 T03770133  RH  023%=      5-min Rain = 0
KPD1 141724Z 30006KT 38/14 A3003 RMK A01 T03810139  RH  024%=      5-min Rain = 0
KPD1 141725Z 31004KT 38/14 A3003 RMK A01 T03830138  RH  023%=      5-min Rain = 0
KPD1 141726Z 27003KT 38/14 A3003 RMK A01 T03820137  RH  023%=      5-min Rain = 0
KPD1 141727Z 27003KT 38/14 A3003 RMK A01 T03810137  RH  024%=      5-min Rain = 0
KPD1 141728Z 29003KT 38/14 A3003 RMK A01 T03830139  RH  023%=      5-min Rain = 0
KPD1 141729Z 29003KT 38/14 A3003 RMK A01 T03840136  RH  023%=      5-min Rain = 0
KPD1 141730Z 29006KT 38/14 A3003 RMK A01 T03830136  RH  023%=      5-min Rain = 0
KPD1 141731Z 29003KT 38/13 A3003 RMK A01 T03790131  RH  023%=      5-min Rain = 0
KPD1 141732Z 23004KT 38/13 A3003 RMK A01 T03780133  RH  023%=      5-min Rain = 0
KPD1 141733Z 21006KT 38/14 A3003 RMK A01 T03800135  RH  023%=      5-min Rain = 0
KPD1 141734Z 18006KT 38/14 A3003 RMK A01 T03800135  RH  023%=      5-min Rain = 0
KPD1 141735Z 18006KT 38/14 A3003 RMK A01 T03820138  RH  024%=      5-min Rain = 0
KPD1 141736Z 17003KT 38/14 A3003 RMK A01 T03840137  RH  023%=      5-min Rain = 0
KPD1 141737Z 12001KT 38/14 A3003 RMK A01 T03830136  RH  023%=      5-min Rain = 0
KPD1 141738Z 19005KT 38/14 A3003 RMK A01 T03830138  RH  023%=      5-min Rain = 0
KPD1 141739Z 19006KT 38/14 A3003 RMK A01 T03830138  RH  023%=      5-min Rain = 0
KPD1 141740Z 21004KT 38/14 A3003 RMK A01 T03820136  RH  023%=      5-min Rain = 0
KPD1 141741Z 18005KT 38/14 A3003 RMK A01 T03800137  RH  024%=      5-min Rain = 0
KPD1 141742Z 17006KT 38/14 A3003 RMK A01 T03800137  RH  024%=      5-min Rain = 0
KPD1 141743Z 15005KT 38/14 A3003 RMK A01 T03800137  RH  024%=      5-min Rain = 0
KPD1 141744Z 15005KT 38/14 A3003 RMK A01 T03800137  RH  024%=      5-min Rain = 0
KPD1 141745Z 13005KT 38/14 A3003 RMK A01 T03820136  RH  023%=      5-min Rain = 0
KPD1 141746Z 12004KT 38/14 A3003 RMK A01 T03830137  RH  023%=      5-min Rain = 0
KPD1 141747Z 12003KT 38/14 A3003 RMK A01 T03840138  RH  023%=      5-min Rain = 0
KPD1 141748Z 14003KT 39/14 A3003 RMK A01 T03870140  RH  023%=      5-min Rain = 0
KPD1 141749Z 08001KT 39/14 A3003 RMK A01 T03900139  RH  023%=      5-min Rain = 0
KPD1 141750Z 01000KT 39/14 A3003 RMK A01 T03910138  RH  022%=      5-min Rain = 0
KPD1 141751Z 35000KT 39/14 A3003 RMK A01 T03900139  RH  023%=      5-min Rain = 0
KPD1 141752Z 04000KT 39/14 A3003 RMK A01 T03920141  RH  023%=      5-min Rain = 0
KPD1 141753Z 33002KT 39/14 A3003 RMK A01 T03940141  RH  022%=      5-min Rain = 0
KPD1 141754Z 27003KT 40/14 A3002 RMK A01 T03960139  RH  022%=      5-min Rain = 0
KPD1 141755Z 24002KT 40/14 A3002 RMK A01 T03960138  RH  022%=      5-min Rain = 0
KPD1 141756Z 28006KT 40/14 A3002 RMK A01 T03960135  RH  021%=      5-min Rain = 0
KPD1 141757Z 30002KT 39/13 A3002 RMK A01 T03930132  RH  021%=      5-min Rain = 0
KPD1 141758Z 17003KT 39/13 A3002 RMK A01 T03900132  RH  022%=      5-min Rain = 0
KPD1 141759Z 10002KT 39/13 A3002 RMK A01 T03900132  RH  022%=      5-min Rain = 0
KPD1 141800Z 34003KT 39/13 A3002 RMK A01 T03900132  RH  022%=      5-min Rain = 0
KPD1 141801Z 31004KT 39/13 A3002 RMK A01 T03890125  RH  021%=      5-min Rain = 0
KPD1 141802Z 28006KT 39/13 A3002 RMK A01 T03900125  RH  021%=      5-min Rain = 0
KPD1 141803Z 27004KT 39/13 A3002 RMK A01 T03940127  RH  021%=      5-min Rain = 0
KPD1 141804Z 30003KT 40/12 A3002 RMK A01 T03950123  RH  020%=      5-min Rain = 0
KPD1 141805Z 27006KT 40/12 A3002 RMK A01 T03950122  RH  020%=      5-min Rain = 0
KPD1 141806Z 26004KT 39/12 A3002 RMK A01 T03940117  RH  019%=      5-min Rain = 0
KPD1 141807Z 27004KT 39/12 A3002 RMK A01 T03940118  RH  019%=      5-min Rain = 0
KPD1 141808Z 25004KT 39/11 A3002 RMK A01 T03930114  RH  019%=      5-min Rain = 0
KPD1 141809Z 30004KT 39/11 A3002 RMK A01 T03890114  RH  019%=      5-min Rain = 0
KPD1 141810Z 29001KT 39/11 A3002 RMK A01 T03870113  RH  019%=      5-min Rain = 0
KPD1 141811Z 29002KT 39/11 A3002 RMK A01 T03850114  RH  020%=      5-min Rain = 0
KPD1 141812Z 28003KT 39/12 A3002 RMK A01 T03860117  RH  020%=      5-min Rain = 0
KPD1 141813Z 24004KT 39/12 A3002 RMK A01 T03900116  RH  020%=      5-min Rain = 0
KPD1 141814Z 24004KT 39/11 A3002 RMK A01 T03920112  RH  019%=      5-min Rain = 0
KPD1 141815Z 22003KT 39/11 A3002 RMK A01 T03900113  RH  019%=      5-min Rain = 0
KPD1 141816Z 22006KT 39/11 A3002 RMK A01 T03910110  RH  019%=      5-min Rain = 0
KPD1 141817Z 19004KT 39/11 A3002 RMK A01 T03940107  RH  018%=      5-min Rain = 0
KPD1 141818Z 18006KT 40/11 A3002 RMK A01 T03950108  RH  018%=      5-min Rain = 0
KPD1 141819Z 14006KT 39/11 A3002 RMK A01 T03940109  RH  018%=      5-min Rain = 0
KPD1 141820Z 12004KT 39/11 A3002 RMK A01 T03940111  RH  019%=      5-min Rain = 0
KPD1 141821Z 13003KT 40/11 A3002 RMK A01 T03950112  RH  018%=      5-min Rain = 0
KPD1 141822Z 17003KT 40/11 A3002 RMK A01 T03960111  RH  018%=      5-min Rain = 0
KPD1 141823Z 18003KT 40/11 A3002 RMK A01 T03970111  RH  018%=      5-min Rain = 0
KPD1 141824Z 16003KT 40/11 A3002 RMK A01 T03980109  RH  018%=      5-min Rain = 0
KPD1 141825Z 20003KT 40/11 A3001 RMK A01 T03980110  RH  018%=      5-min Rain = 0
KPD1 141826Z 18003KT 40/11 A3001 RMK A01 T03990110  RH  018%=      5-min Rain = 0
KPD1 141827Z 21003KT 40/11 A3001 RMK A01 T03980109  RH  018%=      5-min Rain = 0
KPD1 141828Z 22004KT 40/11 A3001 RMK A01 T03960109  RH  018%=      5-min Rain = 0
KPD1 141829Z 23002KT 39/11 A3001 RMK A01 T03940110  RH  018%=      5-min Rain = 0
KPD1 141830Z 30002KT 39/11 A3001 RMK A01 T03940108  RH  018%=      5-min Rain = 0
KPD1 141831Z 13005KT 39/11 A3001 RMK A01 T03940110  RH  018%=      5-min Rain = 0
KPD1 141832Z 18004KT 40/11 A3001 RMK A01 T03970113  RH  018%=      5-min Rain = 0
KPD1 141833Z 14004KT 40/11 A3001 RMK A01 T03990110  RH  018%=      5-min Rain = 0
KPD1 141834Z 09003KT 40/11 A3001 RMK A01 T03990113  RH  018%=      5-min Rain = 0
KPD1 141835Z 09003KT 40/11 A3001 RMK A01 T04010112  RH  018%=      5-min Rain = 0
KPD1 141836Z 07002KT 40/11 A3001 RMK A01 T04020111  RH  018%=      5-min Rain = 0
KPD1 141837Z 07002KT 40/11 A3001 RMK A01 T04030111  RH  018%=      5-min Rain = 0
KPD1 141838Z 04002KT 40/11 A3001 RMK A01 T04030110  RH  017%=      5-min Rain = 0
KPD1 141839Z 35001KT 40/11 A3001 RMK A01 T04020109  RH  018%=      5-min Rain = 0
KPD1 141840Z 33003KT 40/10 A3001 RMK A01 T04020104  RH  017%=      5-min Rain = 0
KPD1 141841Z 32003KT 40/10 A3001 RMK A01 T04040100  RH  016%=      5-min Rain = 0
KPD1 141842Z 33007KT 41/10 A3001 RMK A01 T04050095  RH  016%=      5-min Rain = 0
KPD1 141843Z 33003KT 41/10 A3001 RMK A01 T04050100  RH  016%=      5-min Rain = 0
KPD1 141844Z 26006KT 41/10 A3001 RMK A01 T04080100  RH  016%=      5-min Rain = 0
KPD1 141845Z 29007KT 41/10 A3001 RMK A01 T04100098  RH  016%=      5-min Rain = 0
KPD1 141846Z 32006KT 41/10 A3001 RMK A01 T04090097  RH  016%=      5-min Rain = 0
KPD1 141847Z 32005KT 41/10 A3001 RMK A01 T04070099  RH  016%=      5-min Rain = 0
KPD1 141848Z 31007KT 41/10 A3001 RMK A01 T04090102  RH  016%=      5-min Rain = 0
KPD1 141849Z 34006KT 41/10 A3001 RMK A01 T04110100  RH  016%=      5-min Rain = 0
KPD1 141850Z 35007KT 41/10 A3001 RMK A01 T04120098  RH  015%=      5-min Rain = 0
KPD1 141851Z 35006KT 41/10 A30 RMK A01 T04120101  RH  016%=      5-min Rain = 0
KPD1 141852Z 35007KT 41/10 A30 RMK A01 T04120102  RH  016%=      5-min Rain = 0
KPD1 141853Z 01006KT 41/10 A30 RMK A01 T04100099  RH  016%=      5-min Rain = 0
KPD1 141854Z 01006KT 41/10 A30 RMK A01 T04060098  RH  016%=      5-min Rain = 0
KPD1 141855Z 34005KT 40/10 A30 RMK A01 T04030097  RH  016%=      5-min Rain = 0
KPD1 141856Z 35004KT 40/10 A30 RMK A01 T04020095  RH  016%=      5-min Rain = 0
KPD1 141857Z 34002KT 40/10 A30 RMK A01 T04020095  RH  016%=      5-min Rain = 0
KPD1 141858Z 21000KT 40/10 A30 RMK A01 T04010095  RH  016%=      5-min Rain = 0
KPD1 141859Z 23004G9KT 40/09 A30 RMK A01 T03990093  RH  016%=      5-min Rain = 0
KPD1 141900Z 23007KT 40/09 A30 RMK A01 T04010092  RH  016%=      5-min Rain = 0
KPD1 141901Z 22007KT 41/09 A30 RMK A01 T04080091  RH  015%=      5-min Rain = 0
KPD1 141902Z 20005KT 41/09 A30 RMK A01 T04110087  RH  014%=      5-min Rain = 0
KPD1 141903Z 23003KT 41/09 A30 RMK A01 T04080085  RH  014%=      5-min Rain = 0
KPD1 141904Z 25008KT 41/09 A30 RMK A01 T04080087  RH  015%=      5-min Rain = 0
KPD1 141905Z 24008KT 41/09 A30 RMK A01 T04090086  RH  014%=      5-min Rain = 0
KPD1 141906Z 27006KT 41/09 A30 RMK A01 T04100092  RH  015%=      5-min Rain = 0
KPD1 141907Z 29008KT 41/09 A30 RMK A01 T04130090  RH  015%=      5-min Rain = 0
KPD1 141908Z 27007KT 41/09 A30 RMK A01 T04110089  RH  015%=      5-min Rain = 0
KPD1 141909Z 27006KT 41/09 A30 RMK A01 T04090088  RH  015%=      5-min Rain = 0
KPD1 141910Z 27006KT 41/09 A30 RMK A01 T04090087  RH  015%=      5-min Rain = 0
KPD1 141911Z 28009KT 41/09 A30 RMK A01 T04110089  RH  015%=      5-min Rain = 0
KPD1 141912Z 27006KT 41/09 A30 RMK A01 T04100086  RH  014%=      5-min Rain = 0
KPD1 141913Z 25001KT 41/09 A30 RMK A01 T04070086  RH  015%=      5-min Rain = 0
KPD1 141914Z 16001KT 40/09 A30 RMK A01 T04040085  RH  015%=      5-min Rain = 0
KPD1 141915Z 13002KT 40/09 A30 RMK A01 T04030086  RH  015%=      5-min Rain = 0
KPD1 141916Z 12003KT 40/09 A2999 RMK A01 T04020086  RH  015%=      5-min Rain = 0
KPD1 141917Z 11003KT 40/09 A2999 RMK A01 T04020089  RH  015%=      5-min Rain = 0
KPD1 141918Z 12002KT 41/09 A2999 RMK A01 T04050088  RH  015%=      5-min Rain = 0
KPD1 141919Z 09003KT 41/09 A2999 RMK A01 T04050088  RH  015%=      5-min Rain = 0
KPD1 141920Z 12003KT 41/09 A2999 RMK A01 T04080092  RH  015%=      5-min Rain = 0
KPD1 141921Z 09002KT 41/09 A2999 RMK A01 T04110091  RH  015%=      5-min Rain = 0
KPD1 141922Z 07005KT 41/10 A2999 RMK A01 T04130096  RH  015%=      5-min Rain = 0
KPD1 141923Z 07003KT 42/09 A2999 RMK A01 T04150093  RH  015%=      5-min Rain = 0
KPD1 141924Z 02001KT 41/09 A2999 RMK A01 T04140092  RH  015%=      5-min Rain = 0
KPD1 141925Z 08002KT 41/10 A2999 RMK A01 T04130096  RH  015%=      5-min Rain = 0
KPD1 141926Z 30001KT 42/10 A2999 RMK A01 T04160096  RH  015%=      5-min Rain = 0
KPD1 141927Z 31004G9KT 42/10 A2999 RMK A01 T04190096  RH  015%=      5-min Rain = 0
KPD1 141928Z 35010KT 42/10 A2998 RMK A01 T04180095  RH  015%=      5-min Rain = 0
KPD1 141929Z 35006KT 42/10 A2999 RMK A01 T04150096  RH  015%=      5-min Rain = 0
KPD1 141930Z 02006KT 41/09 A2999 RMK A01 T04120094  RH  015%=      5-min Rain = 0
KPD1 141931Z 02004KT 41/10 A2998 RMK A01 T04090095  RH  015%=      5-min Rain = 0
KPD1 141932Z 32004KT 41/10 A2998 RMK A01 T04090095  RH  015%=      5-min Rain = 0
KPD1 141933Z 31005KT 41/10 A2998 RMK A01 T04130096  RH  015%=      5-min Rain = 0
KPD1 141934Z 30007KT 42/09 A2998 RMK A01 T04150090  RH  014%=      5-min Rain = 0
KPD1 141935Z 29009KT 41/09 A2998 RMK A01 T04130087  RH  014%=      5-min Rain = 0
KPD1 141936Z 28003KT 41/09 A2998 RMK A01 T04090085  RH  014%=      5-min Rain = 0
KPD1 141937Z 23002KT 41/08 A2998 RMK A01 T04050084  RH  015%=      5-min Rain = 0
KPD1 141938Z 21001KT 40/09 A2998 RMK A01 T04030085  RH  015%=      5-min Rain = 0
KPD1 141939Z 31009KT 40/08 A2998 RMK A01 T04020084  RH  015%=      5-min Rain = 0
KPD1 141940Z 32008KT 41/09 A2998 RMK A01 T04050086  RH  015%=      5-min Rain = 0
KPD1 141941Z 35003KT 41/08 A2998 RMK A01 T04070083  RH  014%=      5-min Rain = 0
KPD1 141942Z 02003KT 41/08 A2998 RMK A01 T04060084  RH  014%=      5-min Rain = 0
KPD1 141943Z 32006KT 41/08 A2998 RMK A01 T04070084  RH  014%=      5-min Rain = 0
KPD1 141944Z 32006KT 41/09 A2998 RMK A01 T04090088  RH  015%=      5-min Rain = 0
KPD1 141945Z 27006KT 41/09 A2998 RMK A01 T04110086  RH  014%=      5-min Rain = 0
KPD1 141946Z 29004KT 41/08 A2998 RMK A01 T04110082  RH  014%=      5-min Rain = 0
KPD1 141947Z 34002KT 41/09 A2998 RMK A01 T04110086  RH  014%=      5-min Rain = 0
KPD1 141948Z 30004KT 41/09 A2997 RMK A01 T04140088  RH  014%=      5-min Rain = 0
KPD1 141949Z 31002KT 42/09 A2997 RMK A01 T04160086  RH  014%=      5-min Rain = 0
KPD1 141950Z 34002KT 42/08 A2997 RMK A01 T04160084  RH  014%=      5-min Rain = 0
KPD1 141951Z 00002KT 42/08 A2997 RMK A01 T04150082  RH  014%=      5-min Rain = 0
KPD1 141952Z 03002KT 41/08 A2997 RMK A01 T04110083  RH  014%=      5-min Rain = 0
KPD1 141953Z 08001KT 41/08 A2997 RMK A01 T04090082  RH  014%=      5-min Rain = 0
KPD1 141954Z 11001KT 41/08 A2997 RMK A01 T04080083  RH  014%=      5-min Rain = 0
KPD1 141955Z 05004KT 41/08 A2997 RMK A01 T04060083  RH  014%=      5-min Rain = 0
KPD1 141956Z 05003KT 40/08 A2997 RMK A01 T04040083  RH  015%=      5-min Rain = 0
KPD1 141957Z 09002KT 40/08 A2997 RMK A01 T04000082  RH  015%=      5-min Rain = 0
KPD1 141958Z 11002KT 40/08 A2997 RMK A01 T03980081  RH  015%=      5-min Rain = 0
KPD1 141959Z 08004KT 40/08 A2997 RMK A01 T03970084  RH  015%=      5-min Rain = 0
KPD1 142000Z 09002KT 40/08 A2997 RMK A01 T03970081  RH  015%=      5-min Rain = 0
KPD1 142001Z 04004KT 40/08 A2997 RMK A01 T03950083  RH  015%=      5-min Rain = 0
KPD1 142002Z 03004KT 39/09 A2997 RMK A01 T03940085  RH  015%=      5-min Rain = 0
KPD1 142003Z 03002KT 39/08 A2997 RMK A01 T03930082  RH  015%=      5-min Rain = 0
KPD1 142004Z 02004KT 39/08 A2997 RMK A01 T03940084  RH  015%=      5-min Rain = 0
KPD1 142005Z 04004KT 40/09 A2997 RMK A01 T03960088  RH  016%=      5-min Rain = 0
KPD1 142006Z 05004KT 40/09 A2997 RMK A01 T04000092  RH  016%=      5-min Rain = 0
KPD1 142007Z 02005KT 41/10 A2997 RMK A01 T04060100  RH  016%=      5-min Rain = 0
KPD1 142008Z 02006KT 41/10 A2997 RMK A01 T04100099  RH  016%=      5-min Rain = 0
KPD1 142009Z 36005KT 41/10 A2997 RMK A01 T04110100  RH  016%=      5-min Rain = 0
KPD1 142010Z 34004KT 41/10 A2996 RMK A01 T04140100  RH  015%=      5-min Rain = 0
KPD1 142011Z 32005KT 42/10 A2996 RMK A01 T04180098  RH  015%=      5-min Rain = 0
KPD1 142012Z 35003KT 42/10 A2996 RMK A01 T04190097  RH  015%=      5-min Rain = 0
KPD1 142013Z 09002KT 42/10 A2996 RMK A01 T04210099  RH  015%=      5-min Rain = 0
KPD1 142014Z 10004KT 42/10 A2996 RMK A01 T04210097  RH  015%=      5-min Rain = 0
KPD1 142015Z 07005KT 42/10 A2997 RMK A01 T04170095  RH  015%=      5-min Rain = 0
KPD1 142016Z 08008KT 41/10 A2997 RMK A01 T04130095  RH  015%=      5-min Rain = 0
KPD1 142017Z 10008KT 41/09 A2997 RMK A01 T04080093  RH  015%=      5-min Rain = 0
KPD1 142018Z 15010G19KT 41/10 A2998 RMK A01 T04050096  RH  016%=      5-min Rain = 0
KPD1 142019Z 15015G22KT 40/11 A2998 RMK A01 T03960107  RH  018%=      5-min Rain = 0
KPD1 142020Z 14013KT 38/11 A2998 RMK A01 T03820109  RH  020%=      5-min Rain = 0
KPD1 142021Z 16010G16KT 37/11 A2998 RMK A01 T03740112  RH  021%=      5-min Rain = 0
KPD1 142022Z 15013KT 37/11 A2998 RMK A01 T03700113  RH  021%=      5-min Rain = 0
KPD1 142023Z 14010G16KT 37/11 A2998 RMK A01 T03680114  RH  022%=      5-min Rain = 0
KPD1 142024Z 14014G19KT 37/12 A2998 RMK A01 T03700116  RH  022%=      5-min Rain = 0
KPD1 142025Z 15013G18KT 37/12 A2998 RMK A01 T03720115  RH  021%=      5-min Rain = 0
KPD1 142026Z 15014KT 37/12 A2998 RMK A01 T03740115  RH  021%=      5-min Rain = 0
KPD1 142027Z 14012KT 37/11 A2998 RMK A01 T03740114  RH  021%=      5-min Rain = 0
KPD1 142028Z 14015G21KT 38/11 A2997 RMK A01 T03750114  RH  021%=      5-min Rain = 0
KPD1 142029Z 15015G22KT 38/11 A2997 RMK A01 T03760114  RH  021%=      5-min Rain = 0
KPD1 142030Z 15012KT 38/12 A2997 RMK A01 T03770115  RH  021%=      5-min Rain = 0
KPD1 142031Z 15009KT 38/12 A2997 RMK A01 T03790117  RH  021%=      5-min Rain = 0
KPD1 142032Z 15009G15KT 38/12 A2997 RMK A01 T03820118  RH  021%=      5-min Rain = 0
KPD1 142033Z 15017KT 38/12 A2997 RMK A01 T03830118  RH  020%=      5-min Rain = 0
KPD1 142034Z 15013KT 38/12 A2997 RMK A01 T03810117  RH  021%=      5-min Rain = 0
KPD1 142035Z 14011G17KT 38/12 A2997 RMK A01 T03790122  RH  022%=      5-min Rain = 0
KPD1 142036Z 14015G20KT 38/13 A2997 RMK A01 T03770126  RH  022%=      5-min Rain = 0
KPD1 142037Z 13012G17KT 37/13 A2997 RMK A01 T03730128  RH  023%=      5-min Rain = 0
KPD1 142038Z 14013KT 37/13 A2997 RMK A01 T03720129  RH  023%=      5-min Rain = 0
KPD1 142039Z 14014KT 37/13 A2997 RMK A01 T03720127  RH  023%=      5-min Rain = 0
KPD1 142040Z 16018G23KT 37/13 A2997 RMK A01 T03730125  RH  023%=      5-min Rain = 0
KPD1 142041Z 15015KT 37/12 A2997 RMK A01 T03710122  RH  023%=      5-min Rain = 0
KPD1 142042Z 15012G17KT 37/12 A2997 RMK A01 T03670121  RH  023%=      5-min Rain = 0
KPD1 142043Z 14014G21KT 37/12 A2997 RMK A01 T03660119  RH  023%=      5-min Rain = 0
KPD1 142044Z 15015KT 37/12 A2997 RMK A01 T03660116  RH  022%=      5-min Rain = 0
KPD1 142045Z 16013G18KT 36/11 A2997 RMK A01 T03640113  RH  022%=      5-min Rain = 0
KPD1 142046Z 15015KT 36/11 A2997 RMK A01 T03590112  RH  022%=      5-min Rain = 0
KPD1 142047Z 15015KT 36/11 A2997 RMK A01 T03570111  RH  023%=      5-min Rain = 0
KPD1 142048Z 15015KT 36/11 A2997 RMK A01 T03580112  RH  023%=      5-min Rain = 0
KPD1 142049Z 15015KT 36/11 A2997 RMK A01 T03600111  RH  022%=      5-min Rain = 0
KPD1 142050Z 15013KT 36/11 A2997 RMK A01 T03600111  RH  022%=      5-min Rain = 0
KPD1 142051Z 16013KT 36/11 A2997 RMK A01 T03590110  RH  022%=      5-min Rain = 0
KPD1 142052Z 15020G27KT 36/11 A2997 RMK A01 T03590113  RH  023%=      5-min Rain = 0
KPD1 142053Z 14018G24KT 35/12 A2997 RMK A01 T03520116  RH  024%=      5-min Rain = 0
KPD1 142054Z 13015KT 34/12 A2997 RMK A01 T03440117  RH  025%=      5-min Rain = 0
KPD1 142055Z 15011G18KT 34/12 A2997 RMK A01 T03410119  RH  026%=      5-min Rain = 0
KPD1 142056Z 15011G16KT 34/12 A2997 RMK A01 T03400118  RH  026%=      5-min Rain = 0
KPD1 142057Z 15012KT 34/12 A2997 RMK A01 T03420117  RH  026%=      5-min Rain = 0
KPD1 142058Z 14013KT 35/12 A2997 RMK A01 T03470116  RH  025%=      5-min Rain = 0
KPD1 142059Z 13011KT 35/12 A2997 RMK A01 T03500116  RH  024%=      5-min Rain = 0
KPD1 142100Z 15012KT 35/12 A2997 RMK A01 T03510117  RH  024%=      5-min Rain = 0
KPD1 142101Z 15010KT 35/12 A2997 RMK A01 T03530116  RH  024%=      5-min Rain = 0
KPD1 142102Z 14012KT 35/12 A2997 RMK A01 T03530118  RH  024%=      5-min Rain = 0
KPD1 142103Z 14010G15KT 35/12 A2997 RMK A01 T03530118  RH  024%=      5-min Rain = 0
KPD1 142104Z 14011G17KT 36/12 A2997 RMK A01 T03550117  RH  024%=      5-min Rain = 0
KPD1 142105Z 15011G17KT 36/12 A2997 RMK A01 T03550115  RH  023%=      5-min Rain = 0
KPD1 142106Z 13009G14KT 36/12 A2998 RMK A01 T03550116  RH  023%=      5-min Rain = 0
KPD1 142107Z 11009KT 35/11 A2998 RMK A01 T03530114  RH  024%=      5-min Rain = 0
KPD1 142108Z 12007KT 35/11 A2998 RMK A01 T03480114  RH  024%=      5-min Rain = 0
KPD1 142109Z 11012G19KT 35/12 A2998 RMK A01 T03450115  RH  025%=      5-min Rain = 0
KPD1 142110Z 07011G16KT 34/12 A2998 RMK A01 T03440116  RH  025%=      5-min Rain = 0
KPD1 142111Z 09013G18KT 35/12 A2998 RMK A01 T03450124  RH  026%=      5-min Rain = 0
KPD1 142112Z 09013G20KT 34/13 A2998 RMK A01 T03430129  RH  028%=      5-min Rain = 0
KPD1 142113Z 09016G21KT 34/13 A2998 RMK A01 T03360130  RH  029%=      5-min Rain = 0
KPD1 142114Z 09018G24KT 33/13 A2998 RMK A01 T03300128  RH  029%=      5-min Rain = 0
KPD1 142115Z 08015G21KT 33/13 A2998 RMK A01 T03260126  RH  030%=      5-min Rain = 0
KPD1 142116Z 10009G20KT 33/13 A2998 RMK A01 T03250125  RH  030%=      5-min Rain = 0
KPD1 142117Z 09013G18KT 33/12 A2999 RMK A01 T03250122  RH  029%=      5-min Rain = 0
KPD1 142118Z 08009KT 33/12 A2999 RMK A01 T03250122  RH  029%=      5-min Rain = 0
KPD1 142119Z 08011KT 33/12 A2999 RMK A01 T03250124  RH  029%=      5-min Rain = 0
KPD1 142120Z 09013KT 33/13 A2999 RMK A01 T03250128  RH  030%=      5-min Rain = 0
KPD1 142121Z 09011G18KT 32/13 A2999 RMK A01 T03230132  RH  031%=      5-min Rain = 0
KPD1 142122Z 09014G22KT 32/13 A2999 RMK A01 T03210133  RH  032%=      5-min Rain = 0
KPD1 142123Z 09014G20KT 32/14 A2999 RMK A01 T03190135  RH  033%=      5-min Rain = 0
KPD1 142124Z 06009G14KT 32/14 A2999 RMK A01 T03180141  RH  034%=      5-min Rain = 0
KPD1 142125Z 07008KT 32/14 A2999 RMK A01 T03150144  RH  036%=      5-min Rain = 0
KPD1 142126Z 08011G17KT 31/14 A2999 RMK A01 T03090144  RH  037%=      5-min Rain = 0
KPD1 142127Z 08008G14KT 31/15 A2999 RMK A01 T03050145  RH  038%=      5-min Rain = 0
KPD1 142128Z 09014G19KT 30/14 A2999 RMK A01 T03020144  RH  038%=      5-min Rain = 0
KPD1 142129Z 08015G20KT 30/14 A2999 RMK A01 T03010143  RH  038%=      5-min Rain = 0
KPD1 142130Z 09015G21KT 30/14 A2999 RMK A01 T03000143  RH  038%=      5-min Rain = 0
KPD1 142131Z 08012KT 30/14 A2999 RMK A01 T02990144  RH  039%=      5-min Rain = 0
KPD1 142132Z 09015G20KT 30/15 A2999 RMK A01 T02990145  RH  039%=      5-min Rain = 0
KPD1 142133Z 09015KT 30/15 A2998 RMK A01 T02990145  RH  039%=      5-min Rain = 0
KPD1 142134Z 09011KT 30/15 A2998 RMK A01 T02990147  RH  039%=      5-min Rain = 0
KPD1 142135Z 09012G19KT 30/15 A2999 RMK A01 T02990148  RH  040%=      5-min Rain = 0
KPD1 142136Z 10011KT 30/15 A2998 RMK A01 T02990150  RH  040%=      5-min Rain = 0
KPD1 142137Z 10011G19KT 30/15 A2998 RMK A01 T03000151  RH  040%=      5-min Rain = 0
KPD1 142138Z 09010KT 30/15 A2998 RMK A01 T02990150  RH  040%=      5-min Rain = 0
KPD1 142139Z 09009G18KT 30/15 A2998 RMK A01 T02990148  RH  040%=      5-min Rain = 0
KPD1 142140Z 10012G19KT 30/14 A2998 RMK A01 T03000143  RH  038%=      5-min Rain = 0
KPD1 142141Z 09011G16KT 30/14 A2998 RMK A01 T03020143  RH  038%=      5-min Rain = 0
KPD1 142142Z 11010KT 30/14 A2998 RMK A01 T03040144  RH  038%=      5-min Rain = 0
KPD1 142143Z 12016KT 30/15 A2998 RMK A01 T03040151  RH  039%=      5-min Rain = 0
KPD1 142144Z 11012G17KT 30/16 A2998 RMK A01 T03010164  RH  044%=      5-min Rain = 0
KPD1 142145Z 12010G18KT 29/17 A2998 RMK A01 T02930173  RH  048%=      5-min Rain = 0
KPD1 142146Z 12010G15KT 29/17 A2998 RMK A01 T02850170  RH  050%=      5-min Rain = 0
KPD1 142147Z 12008G13KT 28/17 A2998 RMK A01 T02800170  RH  051%=      5-min Rain = 0.01
KPD1 142148Z 11008KT 28/17 A2998 RMK A01 T02770170  RH  052%=      5-min Rain = 0
KPD1 142149Z 11011G18KT 28/17 A2998 RMK A01 T02750167  RH  052%=      5-min Rain = 0
KPD1 142150Z 13010KT 28/17 A2998 RMK A01 T02750165  RH  051%=      5-min Rain = 0
KPD1 142151Z 11013G19KT 28/16 A2998 RMK A01 T02760162  RH  050%=      5-min Rain = 0
KPD1 142152Z 11010G15KT 28/16 A2998 RMK A01 T02760159  RH  049%=      5-min Rain = 0
KPD1 142153Z 12010G16KT 28/16 A2998 RMK A01 T02770163  RH  050%=      5-min Rain = 0
KPD1 142154Z 12010G16KT 28/16 A2998 RMK A01 T02780159  RH  048%=      5-min Rain = 0
KPD1 142155Z 12006G11KT 28/16 A2999 RMK A01 T02790159  RH  048%=      5-min Rain = 0
KPD1 142156Z 09002G7KT 28/16 A2998 RMK A01 T02800158  RH  048%=      5-min Rain = 0
KPD1 142157Z 15009G17KT 28/15 A2999 RMK A01 T02810153  RH  046%=      5-min Rain = 0
KPD1 142158Z 15012G18KT 28/15 A2999 RMK A01 T02840148  RH  044%=      5-min Rain = 0
KPD1 142159Z 12010KT 29/14 A2999 RMK A01 T02870144  RH  042%=      5-min Rain = 0
KPD1 142200Z 13005G11KT 29/15 A2999 RMK A01 T02910147  RH  042%=      5-min Rain = 0
KPD1 142201Z 14007G14KT 29/15 A2999 RMK A01 T02930152  RH  042%=      5-min Rain = 0
KPD1 142202Z 12009G16KT 29/16 A30 RMK A01 T02930161  RH  045%=      5-min Rain = 0
KPD1 142203Z 13007G12KT 29/17 A30 RMK A01 T02880171  RH  049%=      5-min Rain = 0.01
KPD1 142204Z 14009KT 28/17 A30 RMK A01 T02810166  RH  050%=      5-min Rain = 0.01
KPD1 142205Z 11005KT 28/16 A2999 RMK A01 T02770160  RH  049%=      5-min Rain = 0
KPD1 142206Z 13004KT 27/16 A2999 RMK A01 T02740159  RH  049%=      5-min Rain = 0.01
KPD1 142207Z 15007G15KT 27/16 A2999 RMK A01 T02730160  RH  050%=      5-min Rain = 0
KPD1 142208Z 13009KT 27/17 A2999 RMK A01 T02710169  RH  054%=      5-min Rain = 0
KPD1 142209Z 13013KT 27/17 A2999 RMK A01 T02650168  RH  055%=      5-min Rain = 0
KPD1 142210Z 14009KT 26/16 A2999 RMK A01 T02610164  RH  055%=      5-min Rain = 0.01
KPD1 142211Z 14007KT 26/17 A2999 RMK A01 T02570165  RH  057%=      5-min Rain = 0
KPD1 142212Z 14005KT 26/17 A2999 RMK A01 T02550168  RH  059%=      5-min Rain = 0
KPD1 142213Z 11005KT 25/17 A2999 RMK A01 T02540167  RH  059%=      5-min Rain = 0
KPD1 142214Z 10004KT 25/17 A2999 RMK A01 T02530166  RH  059%=      5-min Rain = 0.01
KPD1 142215Z 12003KT 25/16 A2999 RMK A01 T02540162  RH  057%=      5-min Rain = 0
KPD1 142216Z 13004KT 26/16 A2999 RMK A01 T02550160  RH  056%=      5-min Rain = 0
KPD1 142217Z 15006KT 26/15 A30 RMK A01 T02560153  RH  053%=      5-min Rain = 0
KPD1 142218Z 15006KT 26/15 A30 RMK A01 T02580151  RH  052%=      5-min Rain = 0
KPD1 142219Z 14004KT 26/15 A30 RMK A01 T02600145  RH  049%=      5-min Rain = 0
KPD1 142220Z 13005KT 26/15 A30 RMK A01 T02630150  RH  050%=      5-min Rain = 0
KPD1 142221Z 14006KT 26/15 A2999 RMK A01 T02640146  RH  048%=      5-min Rain = 0
KPD1 142222Z 15006KT 27/15 A2999 RMK A01 T02650154  RH  050%=      5-min Rain = 0
KPD1 142223Z 15007KT 26/16 A2999 RMK A01 T02630162  RH  054%=      5-min Rain = 0
KPD1 142224Z 15006KT 26/17 A2999 RMK A01 T02600166  RH  056%=      5-min Rain = 0
KPD1 142225Z 16007KT 26/17 A2999 RMK A01 T02560168  RH  058%=      5-min Rain = 0.01
KPD1 142226Z 15006KT 25/17 A2998 RMK A01 T02520165  RH  058%=      5-min Rain = 0
KPD1 142227Z 15007KT 25/17 A2998 RMK A01 T02500166  RH  060%=      5-min Rain = 0
KPD1 142228Z 15006KT 25/16 A2998 RMK A01 T02480161  RH  059%=      5-min Rain = 0.01
KPD1 142229Z 13004KT 25/16 A2999 RMK A01 T02470162  RH  059%=      5-min Rain = 0
KPD1 142230Z 13002KT 25/16 A2999 RMK A01 T02480156  RH  057%=      5-min Rain = 0
KPD1 142231Z 12002KT 25/16 A2999 RMK A01 T02490159  RH  058%=      5-min Rain = 0
KPD1 142232Z 13001KT 25/17 A2999 RMK A01 T02480172  RH  063%=      5-min Rain = 0
KPD1 142233Z 12002KT 25/18 A2998 RMK A01 T02470176  RH  065%=      5-min Rain = 0
KPD1 142234Z 10004KT 25/17 A2998 RMK A01 T02460174  RH  064%=      5-min Rain = 0
KPD1 142235Z 08007KT 25/18 A2998 RMK A01 T02460176  RH  065%=      5-min Rain = 0
KPD1 142236Z 09008KT 24/17 A2998 RMK A01 T02440170  RH  063%=      5-min Rain = 0
KPD1 142237Z 10009KT 24/17 A2998 RMK A01 T02430172  RH  064%=      5-min Rain = 0
KPD1 142238Z 09009KT 24/17 A2998 RMK A01 T02430170  RH  064%=      5-min Rain = 0.01
KPD1 142239Z 11009KT 24/17 A2998 RMK A01 T02420171  RH  065%=      5-min Rain = 0
KPD1 142240Z 10008KT 24/17 A2998 RMK A01 T02410167  RH  063%=      5-min Rain = 0
KPD1 142241Z 11007KT 24/16 A2998 RMK A01 T02420161  RH  060%=      5-min Rain = 0
KPD1 142242Z 09006KT 24/16 A2998 RMK A01 T02440164  RH  061%=      5-min Rain = 0
KPD1 142243Z 13003KT 25/17 A2998 RMK A01 T02460165  RH  060%=      5-min Rain = 0
KPD1 142244Z 14006KT 25/16 A2999 RMK A01 T02470161  RH  059%=      5-min Rain = 0
KPD1 142245Z 13006KT 25/17 A2999 RMK A01 T02480168  RH  061%=      5-min Rain = 0
KPD1 142246Z 12005KT 25/16 A2999 RMK A01 T02480160  RH  058%=      5-min Rain = 0
KPD1 142247Z 12003KT 25/16 A2999 RMK A01 T02500158  RH  057%=      5-min Rain = 0
KPD1 142248Z 13001KT 25/16 A2999 RMK A01 T02520156  RH  055%=      5-min Rain = 0
KPD1 142249Z 14002KT 25/16 A2999 RMK A01 T02540157  RH  055%=      5-min Rain = 0
KPD1 142250Z 13003KT 26/15 A2999 RMK A01 T02560151  RH  052%=      5-min Rain = 0
KPD1 142251Z 15002KT 26/15 A2999 RMK A01 T02580148  RH  051%=      5-min Rain = 0
KPD1 142252Z 24002KT 26/15 A2999 RMK A01 T02620146  RH  049%=      5-min Rain = 0
KPD1 142253Z 24003KT 27/15 A2999 RMK A01 T02650151  RH  050%=      5-min Rain = 0
KPD1 142254Z 19006KT 27/16 A2999 RMK A01 T02650161  RH  053%=      5-min Rain = 0.01
KPD1 142255Z 19007KT 26/16 A2999 RMK A01 T02630160  RH  053%=      5-min Rain = 0
KPD1 142256Z 19008KT 26/16 A2999 RMK A01 T02610155  RH  052%=      5-min Rain = 0
KPD1 142257Z 17005KT 26/15 A2999 RMK A01 T02610153  RH  051%=      5-min Rain = 0
KPD1 142258Z 18004KT 26/16 A2998 RMK A01 T02610155  RH  052%=      5-min Rain = 0
KPD1 142259Z 18004KT 26/15 A2998 RMK A01 T02600154  RH  052%=      5-min Rain = 0
KPD1 142300Z 19002KT 26/14 A2999 RMK A01 T02600144  RH  049%=      5-min Rain = 0
KPD1 142301Z 13001KT 26/15 A2999 RMK A01 T02630149  RH  049%=      5-min Rain = 0
KPD1 142302Z 10003KT 27/15 A2999 RMK A01 T02650151  RH  049%=      5-min Rain = 0
KPD1 142303Z 10004KT 27/16 A2999 RMK A01 T02650156  RH  051%=      5-min Rain = 0
KPD1 142304Z 14003KT 27/15 A2999 RMK A01 T02650152  RH  050%=      5-min Rain = 0
KPD1 142305Z 14004KT 27/15 A2999 RMK A01 T02650152  RH  050%=      5-min Rain = 0
KPD1 142306Z 14004KT 27/16 A2999 RMK A01 T02650157  RH  051%=      5-min Rain = 0
KPD1 142307Z 14004KT 27/16 A2999 RMK A01 T02650159  RH  052%=      5-min Rain = 0
KPD1 142308Z 13004KT 26/16 A2999 RMK A01 T02640159  RH  052%=      5-min Rain = 0
KPD1 142309Z 16005KT 26/16 A2999 RMK A01 T02630159  RH  053%=      5-min Rain = 0
KPD1 142310Z 19005KT 26/16 A2999 RMK A01 T02620156  RH  052%=      5-min Rain = 0
KPD1 142311Z 18005KT 26/16 A2999 RMK A01 T02620160  RH  054%=      5-min Rain = 0
KPD1 142312Z 19006KT 26/16 A2999 RMK A01 T02610162  RH  054%=      5-min Rain = 0
KPD1 142313Z 19007KT 26/16 A2999 RMK A01 T02600162  RH  055%=      5-min Rain = 0
KPD1 142314Z 21008KT 26/17 A2999 RMK A01 T02590166  RH  056%=      5-min Rain = 0
KPD1 142315Z 21007KT 26/16 A2999 RMK A01 T02590160  RH  055%=      5-min Rain = 0
KPD1 142316Z 20007KT 26/15 A2999 RMK A01 T02590151  RH  051%=      5-min Rain = 0
KPD1 142317Z 15005KT 26/16 A2999 RMK A01 T02620156  RH  052%=      5-min Rain = 0
KPD1 142318Z 15005KT 26/16 A2999 RMK A01 T02620163  RH  054%=      5-min Rain = 0
KPD1 142319Z 17005KT 26/16 A30 RMK A01 T02610162  RH  054%=      5-min Rain = 0
KPD1 142320Z 19004KT 26/16 A30 RMK A01 T02610156  RH  053%=      5-min Rain = 0
KPD1 142321Z 20006KT 26/16 A2999 RMK A01 T02600156  RH  052%=      5-min Rain = 0
KPD1 142322Z 19008KT 26/16 A2999 RMK A01 T02610157  RH  053%=      5-min Rain = 0
KPD1 142323Z 19008KT 26/15 A2999 RMK A01 T02610152  RH  051%=      5-min Rain = 0
KPD1 142324Z 19008KT 26/15 A2998 RMK A01 T02610153  RH  051%=      5-min Rain = 0
KPD1 142325Z 17009KT 26/15 A2998 RMK A01 T02620153  RH  051%=      5-min Rain = 0
KPD1 142326Z 17009KT 26/15 A2998 RMK A01 T02620148  RH  050%=      5-min Rain = 0
KPD1 142327Z 16007KT 26/15 A2998 RMK A01 T02620151  RH  050%=      5-min Rain = 0
KPD1 142328Z 18009KT 26/15 A2998 RMK A01 T02620152  RH  051%=      5-min Rain = 0
KPD1 142329Z 17009KT 26/15 A2998 RMK A01 T02620153  RH  051%=      5-min Rain = 0
KPD1 142330Z 18006KT 26/15 A2997 RMK A01 T02610152  RH  051%=      5-min Rain = 0
KPD1 142331Z 18006KT 26/15 A2998 RMK A01 T02610152  RH  051%=      5-min Rain = 0
KPD1 142332Z 19005KT 26/15 A2998 RMK A01 T02610154  RH  051%=      5-min Rain = 0
KPD1 142333Z 17007KT 26/16 A2998 RMK A01 T02620157  RH  052%=      5-min Rain = 0
KPD1 142334Z 18007KT 26/16 A2998 RMK A01 T02610156  RH  052%=      5-min Rain = 0
KPD1 142335Z 16007KT 26/15 A2998 RMK A01 T02610153  RH  051%=      5-min Rain = 0
KPD1 142336Z 15007KT 26/15 A2998 RMK A01 T02610153  RH  051%=      5-min Rain = 0
KPD1 142337Z 16005KT 26/15 A2998 RMK A01 T02610151  RH  051%=      5-min Rain = 0
KPD1 142338Z 15005KT 26/15 A2998 RMK A01 T02620151  RH  051%=      5-min Rain = 0
KPD1 142339Z 14006KT 26/15 A2998 RMK A01 T02620148  RH  050%=      5-min Rain = 0
KPD1 142340Z 14004KT 26/15 A2998 RMK A01 T02620148  RH  049%=      5-min Rain = 0
KPD1 142341Z 12004KT 26/15 A2998 RMK A01 T02630148  RH  049%=      5-min Rain = 0
KPD1 142342Z 11006KT 26/15 A2998 RMK A01 T02630151  RH  050%=      5-min Rain = 0
KPD1 142343Z 10006KT 26/15 A2998 RMK A01 T02630151  RH  050%=      5-min Rain = 0
KPD1 142344Z 07006KT 26/16 A2998 RMK A01 T02630157  RH  052%=      5-min Rain = 0
KPD1 142345Z 05006KT 26/16 A2998 RMK A01 T02630156  RH  052%=      5-min Rain = 0
KPD1 142346Z 36006KT 26/16 A2999 RMK A01 T02630156  RH  051%=      5-min Rain = 0
KPD1 142347Z 31007KT 26/15 A2999 RMK A01 T02630154  RH  051%=      5-min Rain = 0
KPD1 142348Z 29009KT 26/16 A2999 RMK A01 T02630159  RH  053%=      5-min Rain = 0
KPD1 142349Z 28009KT 26/16 A2999 RMK A01 T02610163  RH  055%=      5-min Rain = 0
KPD1 142350Z 27007KT 26/16 A2999 RMK A01 T02590160  RH  054%=      5-min Rain = 0
KPD1 142351Z 26006KT 26/16 A2999 RMK A01 T02590156  RH  053%=      5-min Rain = 0
KPD1 142352Z 28004KT 26/15 A30 RMK A01 T02590152  RH  051%=      5-min Rain = 0
KPD1 142353Z 31004KT 26/15 A30 RMK A01 T02610153  RH  051%=      5-min Rain = 0
KPD1 142354Z 29005KT 26/15 A2999 RMK A01 T02610153  RH  051%=      5-min Rain = 0
KPD1 142355Z 31005KT 26/15 A30 RMK A01 T02630149  RH  050%=      5-min Rain = 0
KPD1 142356Z 33006KT 26/15 A30 RMK A01 T02640149  RH  049%=      5-min Rain = 0
KPD1 142357Z 32004KT 27/16 A2999 RMK A01 T02650155  RH  051%=      5-min Rain = 0
KPD1 142358Z 29002KT 27/15 A2999 RMK A01 T02650150  RH  049%=      5-min Rain = 0
KPD1 142359Z 30000KT 27/15 A2999 RMK A01 T02650151  RH  050%=      5-min Rain = 0
KPD1 150000Z 18001KT 27/15 A2999 RMK A01 T02650149  RH  049%=      5-min Rain = 0
KPD1 150001Z 18003KT 27/16 A2999 RMK A01 T02650155  RH  051%=      5-min Rain = 0
KPD1 150002Z 18004KT 26/16 A2998 RMK A01 T02630162  RH  054%=      5-min Rain = 0
KPD1 150003Z 18003KT 26/17 A2998 RMK A01 T02610167  RH  056%=      5-min Rain = 0
KPD1 150004Z 15005KT 26/17 A2998 RMK A01 T02580171  RH  059%=      5-min Rain = 0
KPD1 150005Z 15007KT 26/17 A2997 RMK A01 T02550173  RH  060%=      5-min Rain = 0
KPD1 150006Z 15005KT 25/17 A2997 RMK A01 T02530168  RH  059%=      5-min Rain = 0
KPD1 150007Z 16006KT 25/17 A2997 RMK A01 T02530166  RH  059%=      5-min Rain = 0
KPD1 150008Z 18005KT 25/17 A2997 RMK A01 T02510173  RH  062%=      5-min Rain = 0
KPD1 150009Z 18006KT 25/18 A2997 RMK A01 T02490175  RH  064%=      5-min Rain = 0
KPD1 150010Z 17007KT 25/17 A2998 RMK A01 T02470169  RH  062%=      5-min Rain = 0
KPD1 150011Z 16006KT 25/16 A2998 RMK A01 T02460164  RH  060%=      5-min Rain = 0
KPD1 150012Z 18005KT 25/16 A2998 RMK A01 T02480161  RH  059%=      5-min Rain = 0
KPD1 150013Z 19007KT 25/16 A2998 RMK A01 T02490162  RH  058%=      5-min Rain = 0
KPD1 150014Z 19009KT 25/17 A2998 RMK A01 T02500165  RH  059%=      5-min Rain = 0
KPD1 150015Z 20007KT 25/16 A2997 RMK A01 T02490164  RH  059%=      5-min Rain = 0
KPD1 150016Z 19005KT 25/15 A2997 RMK A01 T02500153  RH  055%=      5-min Rain = 0
KPD1 150017Z 18005KT 25/16 A2997 RMK A01 T02530155  RH  055%=      5-min Rain = 0
KPD1 150018Z 17007KT 25/16 A2997 RMK A01 T02540161  RH  056%=      5-min Rain = 0
KPD1 150019Z 16008KT 25/17 A2997 RMK A01 T02540165  RH  058%=      5-min Rain = 0
KPD1 150020Z 16008KT 25/16 A2997 RMK A01 T02530162  RH  057%=      5-min Rain = 0
KPD1 150021Z 15008G15KT 25/15 A2997 RMK A01 T02520154  RH  054%=      5-min Rain = 0
KPD1 150022Z 15011G16KT 25/14 A2997 RMK A01 T02530143  RH  050%=      5-min Rain = 0
KPD1 150023Z 14009KT 26/14 A2998 RMK A01 T02570141  RH  049%=      5-min Rain = 0
KPD1 150024Z 14005KT 26/14 A2998 RMK A01 T02610140  RH  047%=      5-min Rain = 0
KPD1 150025Z 14005KT 26/15 A2998 RMK A01 T02630147  RH  049%=      5-min Rain = 0
KPD1 150026Z 13004KT 26/15 A2998 RMK A01 T02630146  RH  048%=      5-min Rain = 0
KPD1 150027Z 14003KT 26/15 A2998 RMK A01 T02630148  RH  049%=      5-min Rain = 0
KPD1 150028Z 15003KT 26/15 A2998 RMK A01 T02630147  RH  049%=      5-min Rain = 0
KPD1 150029Z 15002KT 26/15 A2998 RMK A01 T02630145  RH  048%=      5-min Rain = 0
KPD1 150030Z 18002KT 26/15 A2998 RMK A01 T02630146  RH  048%=      5-min Rain = 0
KPD1 150031Z 20002KT 26/15 A2998 RMK A01 T02640147  RH  048%=      5-min Rain = 0
KPD1 150032Z 18004KT 27/15 A2998 RMK A01 T02650150  RH  049%=      5-min Rain = 0
KPD1 150033Z 20008KT 27/15 A2999 RMK A01 T02660150  RH  049%=      5-min Rain = 0
KPD1 150034Z 18010KT 27/15 A2999 RMK A01 T02670153  RH  050%=      5-min Rain = 0
KPD1 150035Z 18010KT 27/15 A2998 RMK A01 T02670147  RH  048%=      5-min Rain = 0
KPD1 150036Z 17008KT 27/14 A2998 RMK A01 T02680142  RH  046%=      5-min Rain = 0
KPD1 150037Z 16008KT 27/15 A2998 RMK A01 T02690147  RH  047%=      5-min Rain = 0
KPD1 150038Z 16009KT 27/14 A2998 RMK A01 T02690143  RH  046%=      5-min Rain = 0
KPD1 150039Z 17008KT 27/14 A2998 RMK A01 T02700139  RH  045%=      5-min Rain = 0
KPD1 150040Z 15008KT 27/14 A2998 RMK A01 T02710140  RH  044%=      5-min Rain = 0
KPD1 150041Z 16008KT 27/14 A2998 RMK A01 T02720138  RH  044%=      5-min Rain = 0
KPD1 150042Z 17008KT 27/14 A2999 RMK A01 T02720139  RH  044%=      5-min Rain = 0
KPD1 150043Z 17007KT 27/14 A2999 RMK A01 T02730139  RH  044%=      5-min Rain = 0
KPD1 150044Z 17008KT 27/14 A2999 RMK A01 T02720139  RH  044%=      5-min Rain = 0
KPD1 150045Z 17008KT 27/14 A2999 RMK A01 T02720138  RH  044%=      5-min Rain = 0
KPD1 150046Z 15005KT 27/14 A2999 RMK A01 T02730140  RH  044%=      5-min Rain = 0
KPD1 150047Z 15005KT 27/14 A2999 RMK A01 T02730140  RH  044%=      5-min Rain = 0
KPD1 150048Z 15005KT 27/14 A2999 RMK A01 T02730142  RH  045%=      5-min Rain = 0
KPD1 150049Z 15005KT 27/14 A30 RMK A01 T02730140  RH  044%=      5-min Rain = 0
KPD1 150050Z 13004KT 27/14 A30 RMK A01 T02730139  RH  044%=      5-min Rain = 0
KPD1 150051Z 16004KT 27/14 A30 RMK A01 T02730141  RH  044%=      5-min Rain = 0
KPD1 150052Z 15005KT 27/14 A30 RMK A01 T02730140  RH  044%=      5-min Rain = 0
KPD1 150053Z 15004KT 27/14 A30 RMK A01 T02740137  RH  043%=      5-min Rain = 0
KPD1 150054Z 15004KT 27/14 A30 RMK A01 T02740138  RH  043%=      5-min Rain = 0
KPD1 150055Z 18004KT 27/14 A30 RMK A01 T02740138  RH  043%=      5-min Rain = 0
KPD1 150056Z 19006KT 27/14 A30 RMK A01 T02740141  RH  044%=      5-min Rain = 0
KPD1 150057Z 18006KT 27/14 A3001 RMK A01 T02730142  RH  044%=      5-min Rain = 0
KPD1 150058Z 18004KT 27/14 A30 RMK A01 T02730141  RH  044%=      5-min Rain = 0
KPD1 150059Z 15003KT 27/14 A30 RMK A01 T02720140  RH  044%=      5-min Rain = 0
KPD1 150100Z 14005KT 27/14 A30 RMK A01 T02720138  RH  044%=      5-min Rain = 0
KPD1 150101Z 14006KT 27/14 A30 RMK A01 T02720139  RH  044%=      5-min Rain = 0
KPD1 150102Z 14008KT 27/14 A30 RMK A01 T02720136  RH  043%=      5-min Rain = 0.01
KPD1 150103Z 16008KT 27/13 A30 RMK A01 T02740131  RH  041%=      5-min Rain = 0
KPD1 150104Z 17007KT 28/13 A30 RMK A01 T02760134  RH  042%=      5-min Rain = 0
KPD1 150105Z 17007KT 28/14 A30 RMK A01 T02760135  RH  042%=      5-min Rain = 0
KPD1 150106Z 18006KT 28/14 A3001 RMK A01 T02760137  RH  042%=      5-min Rain = 0
KPD1 150107Z 17005KT 28/14 A3001 RMK A01 T02760137  RH  042%=      5-min Rain = 0
KPD1 150108Z 16005KT 28/14 A30 RMK A01 T02750137  RH  042%=      5-min Rain = 0
KPD1 150109Z 16005KT 28/14 A30 RMK A01 T02750137  RH  043%=      5-min Rain = 0
KPD1 150110Z 17005KT 28/14 A30 RMK A01 T02750136  RH  042%=      5-min Rain = 0
KPD1 150111Z 18005KT 28/14 A30 RMK A01 T02750138  RH  043%=      5-min Rain = 0
KPD1 150112Z 17005KT 28/14 A30 RMK A01 T02750139  RH  043%=      5-min Rain = 0
KPD1 150113Z 16004KT 27/14 A30 RMK A01 T02740139  RH  043%=      5-min Rain = 0
KPD1 150114Z 16005KT 27/14 A30 RMK A01 T02740141  RH  044%=      5-min Rain = 0
KPD1 150115Z 16005KT 27/14 A30 RMK A01 T02730142  RH  045%=      5-min Rain = 0
KPD1 150116Z 15005KT 27/14 A30 RMK A01 T02720143  RH  045%=      5-min Rain = 0
KPD1 150117Z 14004KT 27/14 A30 RMK A01 T02710143  RH  045%=      5-min Rain = 0
KPD1 150118Z 14005KT 27/14 A30 RMK A01 T02710140  RH  045%=      5-min Rain = 0
KPD1 150119Z 15004KT 27/14 A30 RMK A01 T02710139  RH  044%=      5-min Rain = 0
KPD1 150120Z 16003KT 27/14 A30 RMK A01 T02710140  RH  044%=      5-min Rain = 0
KPD1 150121Z 17003KT 27/14 A30 RMK A01 T02700140  RH  045%=      5-min Rain = 0
KPD1 150122Z 17004KT 27/14 A30 RMK A01 T02690140  RH  045%=      5-min Rain = 0
KPD1 150123Z 18004KT 27/14 A3001 RMK A01 T02690141  RH  045%=      5-min Rain = 0
KPD1 150124Z 19003KT 27/14 A3001 RMK A01 T02680143  RH  046%=      5-min Rain = 0
KPD1 150125Z 20003KT 27/14 A3001 RMK A01 T02680142  RH  046%=      5-min Rain = 0
KPD1 150126Z 20002KT 27/14 A3001 RMK A01 T02670142  RH  046%=      5-min Rain = 0
KPD1 150127Z 22003KT 27/14 A3001 RMK A01 T02660143  RH  047%=      5-min Rain = 0
KPD1 150128Z 23005KT 27/14 A3001 RMK A01 T02660143  RH  047%=      5-min Rain = 0
KPD1 150129Z 23004KT 27/14 A3001 RMK A01 T02650144  RH  047%=      5-min Rain = 0
KPD1 150130Z 22004KT 27/14 A3001 RMK A01 T02650144  RH  047%=      5-min Rain = 0
KPD1 150131Z 21003KT 26/14 A3001 RMK A01 T02640143  RH  047%=      5-min Rain = 0
KPD1 150132Z 20003KT 26/14 A3001 RMK A01 T02640141  RH  047%=      5-min Rain = 0
KPD1 150133Z 21004KT 26/14 A3001 RMK A01 T02640141  RH  046%=      5-min Rain = 0
KPD1 150134Z 20005KT 26/14 A3001 RMK A01 T02640138  RH  046%=      5-min Rain = 0
KPD1 150135Z 21005KT 27/14 A3001 RMK A01 T02650139  RH  046%=      5-min Rain = 0
KPD1 150136Z 23005KT 27/14 A3001 RMK A01 T02660142  RH  047%=      5-min Rain = 0
KPD1 150137Z 23005KT 27/15 A3001 RMK A01 T02660145  RH  047%=      5-min Rain = 0
KPD1 150138Z 23005KT 27/14 A3001 RMK A01 T02650143  RH  047%=      5-min Rain = 0
KPD1 150139Z 23004KT 27/14 A3001 RMK A01 T02650143  RH  047%=      5-min Rain = 0
KPD1 150140Z 23003KT 27/15 A3001 RMK A01 T02650145  RH  048%=      5-min Rain = 0
KPD1 150141Z 22004KT 26/14 A3001 RMK A01 T02640144  RH  048%=      5-min Rain = 0
KPD1 150142Z 21005KT 26/15 A3001 RMK A01 T02640146  RH  048%=      5-min Rain = 0
KPD1 150143Z 20004KT 26/15 A3001 RMK A01 T02630151  RH  050%=      5-min Rain = 0
KPD1 150144Z 19004KT 26/15 A3001 RMK A01 T02620147  RH  049%=      5-min Rain = 0
KPD1 150145Z 18004KT 26/15 A3001 RMK A01 T02620145  RH  048%=      5-min Rain = 0
KPD1 150146Z 19004KT 26/14 A3001 RMK A01 T02620144  RH  048%=      5-min Rain = 0
KPD1 150147Z 20003KT 26/14 A3001 RMK A01 T02630142  RH  047%=      5-min Rain = 0
KPD1 150148Z 20004KT 26/14 A3001 RMK A01 T02640144  RH  048%=      5-min Rain = 0
KPD1 150149Z 20004KT 27/14 A3001 RMK A01 T02650144  RH  047%=      5-min Rain = 0
KPD1 150150Z 20003KT 27/15 A3001 RMK A01 T02650145  RH  048%=      5-min Rain = 0
KPD1 150151Z 20003KT 27/14 A3001 RMK A01 T02650144  RH  047%=      5-min Rain = 0
KPD1 150152Z 22002KT 27/14 A3002 RMK A01 T02650141  RH  047%=      5-min Rain = 0
KPD1 150153Z 22003KT 27/14 A3002 RMK A01 T02650139  RH  046%=      5-min Rain = 0
KPD1 150154Z 23004KT 27/14 A3002 RMK A01 T02650140  RH  046%=      5-min Rain = 0
KPD1 150155Z 23004KT 27/14 A3002 RMK A01 T02650142  RH  047%=      5-min Rain = 0
KPD1 150156Z 22004KT 27/15 A3002 RMK A01 T02660146  RH  048%=      5-min Rain = 0
KPD1 150157Z 22004KT 27/15 A3002 RMK A01 T02660146  RH  048%=      5-min Rain = 0
KPD1 150158Z 21005KT 27/15 A3002 RMK A01 T02650145  RH  048%=      5-min Rain = 0
KPD1 150159Z 20005KT 26/15 A3002 RMK A01 T02640148  RH  049%=      5-min Rain = 0
KPD1 150200Z 20006KT 26/15 A3002 RMK A01 T02640149  RH  049%=      5-min Rain = 0
KPD1 150201Z 19007KT 26/15 A3002 RMK A01 T02630150  RH  050%=      5-min Rain = 0
KPD1 150202Z 19008KT 26/15 A3002 RMK A01 T02620147  RH  049%=      5-min Rain = 0
KPD1 150203Z 19007KT 26/15 A3002 RMK A01 T02620145  RH  048%=      5-min Rain = 0
KPD1 150204Z 19007KT 26/14 A3002 RMK A01 T02630142  RH  047%=      5-min Rain = 0
KPD1 150205Z 18007KT 26/14 A3002 RMK A01 T02630142  RH  047%=      5-min Rain = 0
KPD1 150206Z 19006KT 26/14 A3002 RMK A01 T02640140  RH  046%=      5-min Rain = 0
KPD1 150207Z 20007KT 27/14 A3003 RMK A01 T02650139  RH  046%=      5-min Rain = 0
KPD1 150208Z 21005KT 27/14 A3003 RMK A01 T02670139  RH  045%=      5-min Rain = 0
KPD1 150209Z 20005KT 27/14 A3003 RMK A01 T02680138  RH  045%=      5-min Rain = 0
KPD1 150210Z 21004KT 27/14 A3004 RMK A01 T02690137  RH  044%=      5-min Rain = 0
KPD1 150211Z 22003KT 27/14 A3004 RMK A01 T02700137  RH  044%=      5-min Rain = 0
KPD1 150212Z 25003KT 27/14 A3004 RMK A01 T02710137  RH  044%=      5-min Rain = 0
KPD1 150213Z 25004KT 27/14 A3004 RMK A01 T02700139  RH  044%=      5-min Rain = 0
KPD1 150214Z 25004KT 27/14 A3004 RMK A01 T02710137  RH  044%=      5-min Rain = 0
KPD1 150215Z 25003KT 27/13 A3005 RMK A01 T02710134  RH  043%=      5-min Rain = 0
KPD1 150216Z 26003KT 27/13 A3005 RMK A01 T02720132  RH  042%=      5-min Rain = 0
KPD1 150217Z 25002KT 27/13 A3005 RMK A01 T02720133  RH  042%=      5-min Rain = 0
KPD1 150218Z 21001KT 27/14 A3005 RMK A01 T02720137  RH  043%=      5-min Rain = 0
KPD1 150219Z 19003KT 27/13 A3005 RMK A01 T02720132  RH  042%=      5-min Rain = 0
KPD1 150220Z 18003KT 27/13 A3005 RMK A01 T02720132  RH  042%=      5-min Rain = 0
KPD1 150221Z 18003KT 27/14 A3004 RMK A01 T02720142  RH  045%=      5-min Rain = 0
KPD1 150222Z 17004KT 27/15 A3005 RMK A01 T02700149  RH  047%=      5-min Rain = 0
KPD1 150223Z 17005KT 27/15 A3005 RMK A01 T02670151  RH  049%=      5-min Rain = 0
KPD1 150224Z 15006KT 27/15 A3005 RMK A01 T02650149  RH  049%=      5-min Rain = 0
KPD1 150225Z 13002KT 26/15 A3005 RMK A01 T02630145  RH  048%=      5-min Rain = 0
KPD1 150226Z 13001KT 26/15 A3005 RMK A01 T02620147  RH  049%=      5-min Rain = 0
KPD1 150227Z 18002KT 26/15 A3006 RMK A01 T02600154  RH  052%=      5-min Rain = 0
KPD1 150228Z 20002KT 26/15 A3006 RMK A01 T02560152  RH  053%=      5-min Rain = 0
KPD1 150229Z 18002KT 25/16 A3006 RMK A01 T02540155  RH  054%=      5-min Rain = 0
KPD1 150230Z 18004KT 25/16 A3006 RMK A01 T02530156  RH  055%=      5-min Rain = 0
KPD1 150231Z 18006KT 25/16 A3006 RMK A01 T02510156  RH  055%=      5-min Rain = 0
KPD1 150232Z 19006KT 25/16 A3006 RMK A01 T02500162  RH  058%=      5-min Rain = 0
KPD1 150233Z 19008KT 25/16 A3006 RMK A01 T02470162  RH  059%=      5-min Rain = 0
KPD1 150234Z 19008KT 25/15 A3006 RMK A01 T02470145  RH  053%=      5-min Rain = 0
KPD1 150235Z 17010KT 25/14 A3006 RMK A01 T02500144  RH  051%=      5-min Rain = 0
KPD1 150236Z 18009KT 25/14 A3005 RMK A01 T02530141  RH  050%=      5-min Rain = 0
KPD1 150237Z 19011G16KT 26/14 A3005 RMK A01 T02550143  RH  050%=      5-min Rain = 0
KPD1 150238Z 20013KT 26/14 A3005 RMK A01 T02560143  RH  050%=      5-min Rain = 0
KPD1 150239Z 20011KT 26/14 A3004 RMK A01 T02570140  RH  048%=      5-min Rain = 0
KPD1 150240Z 21012G17KT 26/14 A3005 RMK A01 T02570139  RH  048%=      5-min Rain = 0
KPD1 150241Z 21013KT 26/14 A3005 RMK A01 T02580138  RH  047%=      5-min Rain = 0
KPD1 150242Z 21012KT 26/14 A3005 RMK A01 T02590139  RH  047%=      5-min Rain = 0
KPD1 150243Z 21009G14KT 26/14 A3006 RMK A01 T02590138  RH  047%=      5-min Rain = 0
KPD1 150244Z 21009KT 26/14 A3006 RMK A01 T02580138  RH  047%=      5-min Rain = 0
KPD1 150245Z 22008KT 26/14 A3006 RMK A01 T02580138  RH  047%=      5-min Rain = 0
KPD1 150246Z 21007KT 26/14 A3006 RMK A01 T02570137  RH  047%=      5-min Rain = 0
KPD1 150247Z 20008KT 26/14 A3006 RMK A01 T02570137  RH  047%=      5-min Rain = 0
KPD1 150248Z 21008KT 26/13 A3006 RMK A01 T02570134  RH  047%=      5-min Rain = 0
KPD1 150249Z 19006KT 26/13 A3006 RMK A01 T02570134  RH  046%=      5-min Rain = 0
KPD1 150250Z 21009KT 26/13 A3006 RMK A01 T02580134  RH  046%=      5-min Rain = 0
KPD1 150251Z 20007G17KT 26/14 A3006 RMK A01 T02580135  RH  047%=      5-min Rain = 0
KPD1 150252Z 20013KT 26/13 A3006 RMK A01 T02580131  RH  045%=      5-min Rain = 0
KPD1 150253Z 20016G22KT 26/13 A3006 RMK A01 T02610129  RH  044%=      5-min Rain = 0
KPD1 150254Z 20016G22KT 27/12 A3006 RMK A01 T02650123  RH  041%=      5-min Rain = 0
KPD1 150255Z 21018G24KT 27/12 A3006 RMK A01 T02700122  RH  040%=      5-min Rain = 0
KPD1 150256Z 20016G24KT 27/12 A3005 RMK A01 T02730121  RH  039%=      5-min Rain = 0
KPD1 150257Z 19014G19KT 28/12 A3005 RMK A01 T02750121  RH  038%=      5-min Rain = 0
KPD1 150258Z 20019G25KT 28/12 A3005 RMK A01 T02750119  RH  038%=      5-min Rain = 0
KPD1 150259Z 20016KT 28/12 A3004 RMK A01 T02760119  RH  038%=      5-min Rain = 0
KPD1 150300Z 20017G23KT 28/12 A3004 RMK A01 T02760119  RH  038%=      5-min Rain = 0
KPD1 150301Z 20020G28KT 28/12 A3004 RMK A01 T02770115  RH  036%=      5-min Rain = 0
KPD1 150302Z 20021G28KT 28/11 A3004 RMK A01 T02790114  RH  036%=      5-min Rain = 0
KPD1 150303Z 20019G24KT 28/11 A3004 RMK A01 T02810114  RH  036%=      5-min Rain = 0
KPD1 150304Z 20019G24KT 28/11 A3004 RMK A01 T02810114  RH  035%=      5-min Rain = 0
KPD1 150305Z 20019G28KT 28/12 A3004 RMK A01 T02820115  RH  035%=      5-min Rain = 0
KPD1 150306Z 20016G23KT 28/11 A3004 RMK A01 T02820114  RH  035%=      5-min Rain = 0
KPD1 150307Z 21020G26KT 28/11 A3004 RMK A01 T02820114  RH  035%=      5-min Rain = 0
KPD1 150308Z 21016G21KT 28/12 A3004 RMK A01 T02830116  RH  035%=      5-min Rain = 0
KPD1 150309Z 22013G21KT 28/12 A3004 RMK A01 T02820120  RH  037%=      5-min Rain = 0
KPD1 150310Z 21011KT 28/12 A3004 RMK A01 T02780123  RH  038%=      5-min Rain = 0
KPD1 150311Z 22015KT 27/12 A3004 RMK A01 T02740122  RH  039%=      5-min Rain = 0
KPD1 150312Z 21017G23KT 27/12 A3004 RMK A01 T02730120  RH  039%=      5-min Rain = 0
KPD1 150313Z 21014KT 27/12 A3004 RMK A01 T02740119  RH  038%=      5-min Rain = 0
KPD1 150314Z 20019G27KT 28/12 A3004 RMK A01 T02750122  RH  038%=      5-min Rain = 0
KPD1 150315Z 20021KT 28/12 A3004 RMK A01 T02750118  RH  038%=      5-min Rain = 0
KPD1 150316Z 21016G22KT 28/12 A3004 RMK A01 T02770118  RH  037%=      5-min Rain = 0
KPD1 150317Z 21016G22KT 28/12 A3004 RMK A01 T02780119  RH  037%=      5-min Rain = 0
KPD1 150318Z 22015G21KT 28/12 A3004 RMK A01 T02790119  RH  037%=      5-min Rain = 0
KPD1 150319Z 21015KT 28/12 A3004 RMK A01 T02790120  RH  037%=      5-min Rain = 0
KPD1 150320Z 21018G24KT 28/12 A3004 RMK A01 T02780120  RH  037%=      5-min Rain = 0
KPD1 150321Z 22017G22KT 28/12 A3004 RMK A01 T02780121  RH  038%=      5-min Rain = 0
KPD1 150322Z 21019G26KT 28/12 A3004 RMK A01 T02770121  RH  038%=      5-min Rain = 0
KPD1 150323Z 21018G24KT 28/12 A3004 RMK A01 T02770119  RH  037%=      5-min Rain = 0
KPD1 150324Z 21014KT 28/12 A3005 RMK A01 T02780119  RH  037%=      5-min Rain = 0
KPD1 150325Z 21016G22KT 28/12 A3005 RMK A01 T02780121  RH  038%=      5-min Rain = 0
KPD1 150326Z 21018G25KT 28/12 A3005 RMK A01 T02770121  RH  038%=      5-min Rain = 0
KPD1 150327Z 21016G22KT 28/12 A3005 RMK A01 T02770121  RH  038%=      5-min Rain = 0
KPD1 150328Z 21016G23KT 28/12 A3005 RMK A01 T02760121  RH  038%=      5-min Rain = 0
KPD1 150329Z 21013KT 28/12 A3005 RMK A01 T02750122  RH  038%=      5-min Rain = 0
KPD1 150330Z 21015G23KT 27/12 A3005 RMK A01 T02740122  RH  039%=      5-min Rain = 0
KPD1 150331Z 22014KT 27/12 A3005 RMK A01 T02730121  RH  039%=      5-min Rain = 0
KPD1 150332Z 22016G21KT 27/12 A3005 RMK A01 T02730122  RH  039%=      5-min Rain = 0
KPD1 150333Z 22015G23KT 27/12 A3005 RMK A01 T02720123  RH  040%=      5-min Rain = 0
KPD1 150334Z 22017G24KT 27/12 A3005 RMK A01 T02710123  RH  040%=      5-min Rain = 0
KPD1 150335Z 21015G21KT 27/12 A3005 RMK A01 T02710124  RH  040%=      5-min Rain = 0
KPD1 150336Z 20012KT 27/12 A3006 RMK A01 T02700124  RH  040%=      5-min Rain = 0
KPD1 150337Z 21015G20KT 27/12 A3006 RMK A01 T02690124  RH  040%=      5-min Rain = 0
KPD1 150338Z 21015KT 27/12 A3006 RMK A01 T02690123  RH  040%=      5-min Rain = 0
KPD1 150339Z 22013G20KT 27/12 A3006 RMK A01 T02690124  RH  040%=      5-min Rain = 0
KPD1 150340Z 22010KT 27/13 A3006 RMK A01 T02690125  RH  041%=      5-min Rain = 0
KPD1 150341Z 22017G22KT 27/13 A3006 RMK A01 T02680125  RH  041%=      5-min Rain = 0
KPD1 150342Z 22013KT 27/12 A3006 RMK A01 T02670123  RH  041%=      5-min Rain = 0
KPD1 150343Z 22013G22KT 27/12 A3006 RMK A01 T02670123  RH  041%=      5-min Rain = 0
KPD1 150344Z 22014G19KT 27/12 A3006 RMK A01 T02680122  RH  040%=      5-min Rain = 0
KPD1 150345Z 21013KT 27/12 A3006 RMK A01 T02690123  RH  040%=      5-min Rain = 0
KPD1 150346Z 22014G20KT 27/12 A3006 RMK A01 T02690123  RH  040%=      5-min Rain = 0
KPD1 150347Z 21013G18KT 27/12 A3006 RMK A01 T02690124  RH  041%=      5-min Rain = 0
KPD1 150348Z 21014KT 27/12 A3006 RMK A01 T02680123  RH  041%=      5-min Rain = 0
KPD1 150349Z 22015KT 27/12 A3006 RMK A01 T02680122  RH  040%=      5-min Rain = 0
KPD1 150350Z 21016KT 27/12 A3005 RMK A01 T02690120  RH  039%=      5-min Rain = 0
KPD1 150351Z 22012G17KT 27/12 A3005 RMK A01 T02720120  RH  039%=      5-min Rain = 0
KPD1 150352Z 21009KT 27/12 A3006 RMK A01 T02720121  RH  039%=      5-min Rain = 0
KPD1 150353Z 21010G17KT 27/12 A3006 RMK A01 T02730121  RH  039%=      5-min Rain = 0
KPD1 150354Z 20010KT 27/12 A3006 RMK A01 T02720121  RH  039%=      5-min Rain = 0
KPD1 150355Z 21012G17KT 27/12 A3006 RMK A01 T02720119  RH  038%=      5-min Rain = 0
KPD1 150356Z 22014G19KT 27/12 A3006 RMK A01 T02740116  RH  038%=      5-min Rain = 0
KPD1 150357Z 22011KT 28/12 A3006 RMK A01 T02770117  RH  037%=      5-min Rain = 0
KPD1 150358Z 21012G17KT 28/12 A3006 RMK A01 T02780118  RH  037%=      5-min Rain = 0
KPD1 150359Z 21011G17KT 28/12 A3006 RMK A01 T02780118  RH  037%=      5-min Rain = 0
KPD1 150400Z 21013G18KT 28/12 A3006 RMK A01 T02790117  RH  037%=      5-min Rain = 0
KPD1 150401Z 21010KT 28/12 A3006 RMK A01 T02790118  RH  037%=      5-min Rain = 0
KPD1 150402Z 21009KT 28/12 A3006 RMK A01 T02790118  RH  037%=      5-min Rain = 0
KPD1 150403Z 21009KT 28/12 A3006 RMK A01 T02790117  RH  037%=      5-min Rain = 0
KPD1 150404Z 20008KT 28/12 A3006 RMK A01 T02780118  RH  037%=      5-min Rain = 0
KPD1 150405Z 20007KT 28/12 A3006 RMK A01 T02780117  RH  037%=      5-min Rain = 0
KPD1 150406Z 20006KT 28/12 A3006 RMK A01 T02780117  RH  037%=      5-min Rain = 0
KPD1 150407Z 20006KT 28/12 A3007 RMK A01 T02780117  RH  037%=      5-min Rain = 0
KPD1 150408Z 20008KT 28/12 A3007 RMK A01 T02780117  RH  037%=      5-min Rain = 0
KPD1 150409Z 19008KT 28/12 A3007 RMK A01 T02780115  RH  036%=      5-min Rain = 0
KPD1 150410Z 20007KT 28/12 A3007 RMK A01 T02780115  RH  036%=      5-min Rain = 0
KPD1 150411Z 19006KT 28/12 A3007 RMK A01 T02780115  RH  036%=      5-min Rain = 0
KPD1 150412Z 18007KT 28/12 A3007 RMK A01 T02780115  RH  036%=      5-min Rain = 0
KPD1 150413Z 19007KT 28/11 A3007 RMK A01 T02780113  RH  036%=      5-min Rain = 0
KPD1 150414Z 17005KT 28/11 A3007 RMK A01 T02790113  RH  036%=      5-min Rain = 0
KPD1 150415Z 13003KT 28/12 A3007 RMK A01 T02790115  RH  036%=      5-min Rain = 0
KPD1 150416Z 14003KT 28/12 A3008 RMK A01 T02790116  RH  036%=      5-min Rain = 0
KPD1 150417Z 09003KT 28/12 A3008 RMK A01 T02780116  RH  037%=      5-min Rain = 0
KPD1 150418Z 09002KT 28/12 A3008 RMK A01 T02770118  RH  037%=      5-min Rain = 0
KPD1 150419Z 13002KT 28/12 A3008 RMK A01 T02760118  RH  037%=      5-min Rain = 0
KPD1 150420Z 11003KT 28/12 A3008 RMK A01 T02750116  RH  037%=      5-min Rain = 0
KPD1 150421Z 13003KT 28/11 A3008 RMK A01 T02750113  RH  036%=      5-min Rain = 0
KPD1 150422Z 12005G10KT 28/11 A3008 RMK A01 T02760112  RH  036%=      5-min Rain = 0
KPD1 150423Z 12006KT 28/12 A3008 RMK A01 T02770116  RH  037%=      5-min Rain = 0
KPD1 150424Z 13006KT 28/12 A3008 RMK A01 T02770118  RH  037%=      5-min Rain = 0
KPD1 150425Z 17005KT 28/11 A3008 RMK A01 T02770112  RH  036%=      5-min Rain = 0
KPD1 150426Z 21008KT 28/11 A3008 RMK A01 T02790110  RH  035%=      5-min Rain = 0
KPD1 150427Z 14004KT 28/11 A3008 RMK A01 T02820109  RH  034%=      5-min Rain = 0
KPD1 150428Z 13006KT 28/11 A3008 RMK A01 T02840112  RH  034%=      5-min Rain = 0
KPD1 150429Z 13006KT 28/11 A3008 RMK A01 T02840114  RH  035%=      5-min Rain = 0
KPD1 150430Z 14006KT 28/12 A3008 RMK A01 T02830115  RH  035%=      5-min Rain = 0
KPD1 150431Z 14006KT 28/12 A3008 RMK A01 T02820118  RH  036%=      5-min Rain = 0
KPD1 150432Z 13004KT 28/12 A3008 RMK A01 T02810119  RH  037%=      5-min Rain = 0
KPD1 150433Z 12003KT 28/12 A3008 RMK A01 T02790120  RH  037%=      5-min Rain = 0
KPD1 150434Z 08003KT 28/12 A3008 RMK A01 T02770122  RH  038%=      5-min Rain = 0
KPD1 150435Z 07003KT 28/13 A3008 RMK A01 T02750126  RH  040%=      5-min Rain = 0
KPD1 150436Z 07003KT 27/13 A3008 RMK A01 T02730127  RH  040%=      5-min Rain = 0
KPD1 150437Z 04003KT 27/13 A3008 RMK A01 T02710127  RH  041%=      5-min Rain = 0
KPD1 150438Z 03001KT 27/13 A3009 RMK A01 T02680129  RH  042%=      5-min Rain = 0
KPD1 150439Z 02002KT 27/13 A3008 RMK A01 T02660129  RH  042%=      5-min Rain = 0
KPD1 150440Z 00002KT 27/13 A3009 RMK A01 T02650128  RH  043%=      5-min Rain = 0
KPD1 150441Z 02003KT 26/13 A3009 RMK A01 T02630130  RH  044%=      5-min Rain = 0
KPD1 150442Z 03003KT 26/13 A3009 RMK A01 T02610134  RH  045%=      5-min Rain = 0
KPD1 150443Z 03006KT 26/14 A301 RMK A01 T02590135  RH  046%=      5-min Rain = 0
KPD1 150444Z 03009KT 26/13 A301 RMK A01 T02580131  RH  046%=      5-min Rain = 0
KPD1 150445Z 04010KT 26/13 A3011 RMK A01 T02580131  RH  046%=      5-min Rain = 0
KPD1 150446Z 01012KT 26/14 A3011 RMK A01 T02580136  RH  047%=      5-min Rain = 0
KPD1 150447Z 36011G16KT 26/14 A3011 RMK A01 T02550139  RH  048%=      5-min Rain = 0
KPD1 150448Z 35010KT 25/14 A3011 RMK A01 T02540139  RH  049%=      5-min Rain = 0
KPD1 150449Z 03012KT 25/14 A3011 RMK A01 T02520140  RH  050%=      5-min Rain = 0
KPD1 150450Z 03011KT 25/14 A3012 RMK A01 T02520139  RH  050%=      5-min Rain = 0
KPD1 150451Z 02009KT 25/14 A3012 RMK A01 T02520138  RH  049%=      5-min Rain = 0
KPD1 150452Z 02008KT 25/14 A3012 RMK A01 T02530137  RH  049%=      5-min Rain = 0
KPD1 150453Z 36007KT 25/14 A3012 RMK A01 T02540136  RH  048%=      5-min Rain = 0
KPD1 150454Z 00006KT 26/13 A3012 RMK A01 T02550133  RH  047%=      5-min Rain = 0
KPD1 150455Z 03006KT 26/13 A3012 RMK A01 T02570131  RH  046%=      5-min Rain = 0
KPD1 150456Z 01008KT 26/13 A3012 RMK A01 T02590130  RH  045%=      5-min Rain = 0
KPD1 150457Z 01008KT 26/13 A3013 RMK A01 T02610134  RH  045%=      5-min Rain = 0
KPD1 150458Z 01006KT 26/14 A3013 RMK A01 T02610135  RH  046%=      5-min Rain = 0
KPD1 150459Z 01012KT 26/13 A3013 RMK A01 T02600133  RH  045%=      5-min Rain = 0

Page generated in 0.0716 seconds.